<?xml version="1.0" encoding="UTF-8" standalone="no" ?>
<gpx xmlns="http://www.topografix.com/GPX/1/1" xmlns:xsi="http://www.w3.org/2001/XMLSchema-instance" xsi:schemaLocation="http://www.topografix.com/GPX/1/1 http://www.topografix.com/GPX/1/1/gpx.xsd" version="1.1" creator="VisuGPX - https://www.visugpx.com">
  <metadata>
    <name>HRE J5</name>
  </metadata>
  <trk>
    <name><![CDATA[Tracé 20211223-065654]]></name>
    <trkseg>
      <trkpt lat="44.92076" lon="6.82573">
        <ele>1733.4</ele>
        <time>2021-12-23T05:56:54Z</time>
      </trkpt>
      <trkpt lat="44.92073" lon="6.82562">
        <ele>1337.6</ele>
        <time>2021-12-23T05:56:56Z</time>
      </trkpt>
      <trkpt lat="44.92066" lon="6.82563">
        <ele>1338.7</ele>
        <time>2021-12-23T05:56:59Z</time>
      </trkpt>
      <trkpt lat="44.92064" lon="6.82555">
        <ele>1340.1</ele>
        <time>2021-12-23T05:57:00Z</time>
      </trkpt>
      <trkpt lat="44.92065" lon="6.82539">
        <ele>1329.3</ele>
        <time>2021-12-23T05:57:03Z</time>
      </trkpt>
      <trkpt lat="44.92064" lon="6.82529">
        <ele>1334.6</ele>
        <time>2021-12-23T05:57:04Z</time>
      </trkpt>
      <trkpt lat="44.92063" lon="6.82523">
        <ele>1336</ele>
        <time>2021-12-23T05:57:06Z</time>
      </trkpt>
      <trkpt lat="44.92061" lon="6.82492">
        <ele>1369.1</ele>
        <time>2021-12-23T05:57:25Z</time>
      </trkpt>
      <trkpt lat="44.92063" lon="6.82486">
        <ele>1377.8</ele>
        <time>2021-12-23T05:57:29Z</time>
      </trkpt>
      <trkpt lat="44.92062" lon="6.8248">
        <ele>1388.7</ele>
        <time>2021-12-23T05:57:35Z</time>
      </trkpt>
      <trkpt lat="44.92057" lon="6.82495">
        <ele>1393</ele>
        <time>2021-12-23T05:57:52Z</time>
      </trkpt>
      <trkpt lat="44.92055" lon="6.82502">
        <ele>1393.9</ele>
        <time>2021-12-23T05:57:57Z</time>
      </trkpt>
      <trkpt lat="44.92052" lon="6.82526">
        <ele>1411.5</ele>
        <time>2021-12-23T05:58:34Z</time>
      </trkpt>
      <trkpt lat="44.92052" lon="6.82525">
        <ele>1412</ele>
        <time>2021-12-23T05:58:35Z</time>
      </trkpt>
      <trkpt lat="44.92054" lon="6.82522">
        <ele>1417.3</ele>
        <time>2021-12-23T05:58:39Z</time>
      </trkpt>
      <trkpt lat="44.92054" lon="6.82523">
        <ele>1427.2</ele>
        <time>2021-12-23T05:58:40Z</time>
      </trkpt>
      <trkpt lat="44.92053" lon="6.82516">
        <ele>1443.7</ele>
        <time>2021-12-23T05:58:43Z</time>
      </trkpt>
      <trkpt lat="44.92048" lon="6.82522">
        <ele>1483</ele>
        <time>2021-12-23T05:58:52Z</time>
      </trkpt>
      <trkpt lat="44.92043" lon="6.82523">
        <ele>1502.5</ele>
        <time>2021-12-23T05:58:58Z</time>
      </trkpt>
      <trkpt lat="44.9204" lon="6.82548">
        <ele>1508.1</ele>
        <time>2021-12-23T05:58:59Z</time>
      </trkpt>
      <trkpt lat="44.92036" lon="6.82554">
        <ele>1535.3</ele>
        <time>2021-12-23T05:59:07Z</time>
      </trkpt>
      <trkpt lat="44.9203" lon="6.82558">
        <ele>1564.8</ele>
        <time>2021-12-23T05:59:08Z</time>
      </trkpt>
      <trkpt lat="44.92026" lon="6.82564">
        <ele>1596.2</ele>
        <time>2021-12-23T05:59:10Z</time>
      </trkpt>
      <trkpt lat="44.92023" lon="6.8257">
        <ele>1608.3</ele>
        <time>2021-12-23T05:59:14Z</time>
      </trkpt>
      <trkpt lat="44.92019" lon="6.82569">
        <ele>1621.2</ele>
        <time>2021-12-23T05:59:21Z</time>
      </trkpt>
      <trkpt lat="44.92014" lon="6.82571">
        <ele>1623.1</ele>
        <time>2021-12-23T05:59:27Z</time>
      </trkpt>
      <trkpt lat="44.92019" lon="6.82569">
        <ele>1625.7</ele>
        <time>2021-12-23T05:59:35Z</time>
      </trkpt>
      <trkpt lat="44.92025" lon="6.82564">
        <ele>1629.6</ele>
        <time>2021-12-23T05:59:38Z</time>
      </trkpt>
      <trkpt lat="44.92028" lon="6.82553">
        <ele>1631</ele>
        <time>2021-12-23T05:59:40Z</time>
      </trkpt>
      <trkpt lat="44.92028" lon="6.82561">
        <ele>1632.3</ele>
        <time>2021-12-23T05:59:53Z</time>
      </trkpt>
      <trkpt lat="44.92027" lon="6.82568">
        <ele>1631.3</ele>
        <time>2021-12-23T05:59:57Z</time>
      </trkpt>
      <trkpt lat="44.92021" lon="6.82573">
        <ele>1627.6</ele>
        <time>2021-12-23T05:59:59Z</time>
      </trkpt>
      <trkpt lat="44.92016" lon="6.82576">
        <ele>1626.9</ele>
        <time>2021-12-23T06:00:13Z</time>
      </trkpt>
      <trkpt lat="44.92019" lon="6.82582">
        <ele>1625.1</ele>
        <time>2021-12-23T06:00:31Z</time>
      </trkpt>
      <trkpt lat="44.9202" lon="6.82589">
        <ele>1625.1</ele>
        <time>2021-12-23T06:00:35Z</time>
      </trkpt>
      <trkpt lat="44.92017" lon="6.82581">
        <ele>1626.5</ele>
        <time>2021-12-23T06:00:45Z</time>
      </trkpt>
      <trkpt lat="44.9202" lon="6.82573">
        <ele>1629.4</ele>
        <time>2021-12-23T06:00:48Z</time>
      </trkpt>
      <trkpt lat="44.92018" lon="6.8258">
        <ele>1630.2</ele>
        <time>2021-12-23T06:01:18Z</time>
      </trkpt>
      <trkpt lat="44.92018" lon="6.82588">
        <ele>1630.2</ele>
        <time>2021-12-23T06:01:22Z</time>
      </trkpt>
      <trkpt lat="44.92018" lon="6.82593">
        <ele>1630.2</ele>
        <time>2021-12-23T06:01:24Z</time>
      </trkpt>
      <trkpt lat="44.92018" lon="6.82596">
        <ele>1630.2</ele>
        <time>2021-12-23T06:01:25Z</time>
      </trkpt>
      <trkpt lat="44.92018" lon="6.82604">
        <ele>1630.2</ele>
        <time>2021-12-23T06:01:28Z</time>
      </trkpt>
      <trkpt lat="44.92017" lon="6.82611">
        <ele>1630.3</ele>
        <time>2021-12-23T06:01:40Z</time>
      </trkpt>
      <trkpt lat="44.92017" lon="6.82613">
        <ele>1630.3</ele>
        <time>2021-12-23T06:01:41Z</time>
      </trkpt>
      <trkpt lat="44.92015" lon="6.8262">
        <ele>1630.3</ele>
        <time>2021-12-23T06:01:43Z</time>
      </trkpt>
      <trkpt lat="44.92016" lon="6.82627">
        <ele>1630.3</ele>
        <time>2021-12-23T06:01:53Z</time>
      </trkpt>
      <trkpt lat="44.92015" lon="6.82633">
        <ele>1630.3</ele>
        <time>2021-12-23T06:01:57Z</time>
      </trkpt>
      <trkpt lat="44.92014" lon="6.82643">
        <ele>1630.3</ele>
        <time>2021-12-23T06:02:00Z</time>
      </trkpt>
      <trkpt lat="44.92013" lon="6.82634">
        <ele>1630.2</ele>
        <time>2021-12-23T06:02:07Z</time>
      </trkpt>
      <trkpt lat="44.92015" lon="6.82627">
        <ele>1630.4</ele>
        <time>2021-12-23T06:02:12Z</time>
      </trkpt>
      <trkpt lat="44.92016" lon="6.82635">
        <ele>1630.5</ele>
        <time>2021-12-23T06:02:18Z</time>
      </trkpt>
      <trkpt lat="44.92014" lon="6.82642">
        <ele>1630.7</ele>
        <time>2021-12-23T06:02:31Z</time>
      </trkpt>
      <trkpt lat="44.92015" lon="6.82634">
        <ele>1630.9</ele>
        <time>2021-12-23T06:02:36Z</time>
      </trkpt>
      <trkpt lat="44.92017" lon="6.82626">
        <ele>1631</ele>
        <time>2021-12-23T06:02:37Z</time>
      </trkpt>
      <trkpt lat="44.9202" lon="6.82616">
        <ele>1631.4</ele>
        <time>2021-12-23T06:02:42Z</time>
      </trkpt>
      <trkpt lat="44.9202" lon="6.82601">
        <ele>1631.9</ele>
        <time>2021-12-23T06:02:47Z</time>
      </trkpt>
      <trkpt lat="44.92021" lon="6.82594">
        <ele>1632</ele>
        <time>2021-12-23T06:02:48Z</time>
      </trkpt>
      <trkpt lat="44.92022" lon="6.82587">
        <ele>1632.2</ele>
        <time>2021-12-23T06:02:49Z</time>
      </trkpt>
      <trkpt lat="44.92018" lon="6.82586">
        <ele>1632.2</ele>
        <time>2021-12-23T06:02:58Z</time>
      </trkpt>
      <trkpt lat="44.92021" lon="6.82594">
        <ele>1632.1</ele>
        <time>2021-12-23T06:03:25Z</time>
      </trkpt>
      <trkpt lat="44.9202" lon="6.82601">
        <ele>1632</ele>
        <time>2021-12-23T06:03:28Z</time>
      </trkpt>
      <trkpt lat="44.9202" lon="6.82607">
        <ele>1632.1</ele>
        <time>2021-12-23T06:03:31Z</time>
      </trkpt>
      <trkpt lat="44.92021" lon="6.82615">
        <ele>1632.1</ele>
        <time>2021-12-23T06:03:36Z</time>
      </trkpt>
      <trkpt lat="44.92019" lon="6.82622">
        <ele>1632.3</ele>
        <time>2021-12-23T06:03:39Z</time>
      </trkpt>
      <trkpt lat="44.92016" lon="6.82635">
        <ele>1632.3</ele>
        <time>2021-12-23T06:03:40Z</time>
      </trkpt>
      <trkpt lat="44.92014" lon="6.82644">
        <ele>1632.5</ele>
        <time>2021-12-23T06:03:43Z</time>
      </trkpt>
      <trkpt lat="44.92015" lon="6.82645">
        <ele>1632.4</ele>
        <time>2021-12-23T06:03:48Z</time>
      </trkpt>
      <trkpt lat="44.92016" lon="6.82644">
        <ele>1632.6</ele>
        <time>2021-12-23T06:03:49Z</time>
      </trkpt>
      <trkpt lat="44.9202" lon="6.8264">
        <ele>1633.1</ele>
        <time>2021-12-23T06:03:54Z</time>
      </trkpt>
      <trkpt lat="44.92021" lon="6.82639">
        <ele>1633.2</ele>
        <time>2021-12-23T06:03:55Z</time>
      </trkpt>
      <trkpt lat="44.92022" lon="6.82626">
        <ele>1633.9</ele>
        <time>2021-12-23T06:04:03Z</time>
      </trkpt>
      <trkpt lat="44.92021" lon="6.82613">
        <ele>1633.9</ele>
        <time>2021-12-23T06:04:04Z</time>
      </trkpt>
      <trkpt lat="44.92023" lon="6.82607">
        <ele>1634</ele>
        <time>2021-12-23T06:04:16Z</time>
      </trkpt>
      <trkpt lat="44.92021" lon="6.82596">
        <ele>1634.2</ele>
        <time>2021-12-23T06:04:21Z</time>
      </trkpt>
      <trkpt lat="44.92017" lon="6.82592">
        <ele>1634.2</ele>
        <time>2021-12-23T06:04:23Z</time>
      </trkpt>
      <trkpt lat="44.92013" lon="6.82596">
        <ele>1634.2</ele>
        <time>2021-12-23T06:04:28Z</time>
      </trkpt>
      <trkpt lat="44.92014" lon="6.8259">
        <ele>1634.1</ele>
        <time>2021-12-23T06:04:31Z</time>
      </trkpt>
      <trkpt lat="44.92015" lon="6.82582">
        <ele>1634</ele>
        <time>2021-12-23T06:04:35Z</time>
      </trkpt>
      <trkpt lat="44.92047" lon="6.82465">
        <ele>1656.5</ele>
        <time>2021-12-23T06:06:52Z</time>
      </trkpt>
      <trkpt lat="44.92047" lon="6.82467">
        <ele>1656.5</ele>
        <time>2021-12-23T06:06:53Z</time>
      </trkpt>
      <trkpt lat="44.92046" lon="6.8247">
        <ele>1656.1</ele>
        <time>2021-12-23T06:06:57Z</time>
      </trkpt>
      <trkpt lat="44.92046" lon="6.82471">
        <ele>1655.9</ele>
        <time>2021-12-23T06:06:58Z</time>
      </trkpt>
      <trkpt lat="44.92037" lon="6.82506">
        <ele>1661</ele>
        <time>2021-12-23T06:07:06Z</time>
      </trkpt>
      <trkpt lat="44.92035" lon="6.82517">
        <ele>1663.5</ele>
        <time>2021-12-23T06:07:07Z</time>
      </trkpt>
      <trkpt lat="44.92033" lon="6.82526">
        <ele>1665.6</ele>
        <time>2021-12-23T06:07:08Z</time>
      </trkpt>
      <trkpt lat="44.92033" lon="6.82534">
        <ele>1668.9</ele>
        <time>2021-12-23T06:07:20Z</time>
      </trkpt>
      <trkpt lat="44.92036" lon="6.82527">
        <ele>1668.2</ele>
        <time>2021-12-23T06:07:22Z</time>
      </trkpt>
      <trkpt lat="44.92041" lon="6.82525">
        <ele>1668.7</ele>
        <time>2021-12-23T06:07:29Z</time>
      </trkpt>
      <trkpt lat="44.92038" lon="6.82531">
        <ele>1667.2</ele>
        <time>2021-12-23T06:07:32Z</time>
      </trkpt>
      <trkpt lat="44.92035" lon="6.82536">
        <ele>1665.5</ele>
        <time>2021-12-23T06:07:36Z</time>
      </trkpt>
      <trkpt lat="44.92033" lon="6.82543">
        <ele>1664.5</ele>
        <time>2021-12-23T06:07:45Z</time>
      </trkpt>
      <trkpt lat="44.92032" lon="6.82546">
        <ele>1664.2</ele>
        <time>2021-12-23T06:07:46Z</time>
      </trkpt>
      <trkpt lat="44.92032" lon="6.82546">
        <ele>1664</ele>
        <time>2021-12-23T06:07:47Z</time>
      </trkpt>
      <trkpt lat="44.92029" lon="6.82552">
        <ele>1664.5</ele>
        <time>2021-12-23T06:07:54Z</time>
      </trkpt>
      <trkpt lat="44.92028" lon="6.82558">
        <ele>1666.2</ele>
        <time>2021-12-23T06:08:02Z</time>
      </trkpt>
      <trkpt lat="44.92029" lon="6.82559">
        <ele>1666.5</ele>
        <time>2021-12-23T06:08:03Z</time>
      </trkpt>
      <trkpt lat="44.92027" lon="6.82569">
        <ele>1667.4</ele>
        <time>2021-12-23T06:08:05Z</time>
      </trkpt>
      <trkpt lat="44.92026" lon="6.82579">
        <ele>1668.3</ele>
        <time>2021-12-23T06:08:08Z</time>
      </trkpt>
      <trkpt lat="44.92025" lon="6.82586">
        <ele>1668.8</ele>
        <time>2021-12-23T06:08:10Z</time>
      </trkpt>
      <trkpt lat="44.92025" lon="6.82588">
        <ele>1668.9</ele>
        <time>2021-12-23T06:08:14Z</time>
      </trkpt>
      <trkpt lat="44.92024" lon="6.8259">
        <ele>1668.9</ele>
        <time>2021-12-23T06:08:15Z</time>
      </trkpt>
      <trkpt lat="44.92023" lon="6.82597">
        <ele>1669.1</ele>
        <time>2021-12-23T06:08:20Z</time>
      </trkpt>
      <trkpt lat="44.92025" lon="6.8259">
        <ele>1669.6</ele>
        <time>2021-12-23T06:08:22Z</time>
      </trkpt>
      <trkpt lat="44.92027" lon="6.82583">
        <ele>1669.8</ele>
        <time>2021-12-23T06:08:26Z</time>
      </trkpt>
      <trkpt lat="44.92028" lon="6.82577">
        <ele>1670.2</ele>
        <time>2021-12-23T06:08:28Z</time>
      </trkpt>
      <trkpt lat="44.92028" lon="6.82572">
        <ele>1670.8</ele>
        <time>2021-12-23T06:08:30Z</time>
      </trkpt>
      <trkpt lat="44.92029" lon="6.8257">
        <ele>1671</ele>
        <time>2021-12-23T06:08:31Z</time>
      </trkpt>
      <trkpt lat="44.9203" lon="6.82564">
        <ele>1671.6</ele>
        <time>2021-12-23T06:08:35Z</time>
      </trkpt>
      <trkpt lat="44.92032" lon="6.82557">
        <ele>1672.1</ele>
        <time>2021-12-23T06:08:40Z</time>
      </trkpt>
      <trkpt lat="44.92034" lon="6.82547">
        <ele>1672.3</ele>
        <time>2021-12-23T06:08:43Z</time>
      </trkpt>
      <trkpt lat="44.92037" lon="6.82537">
        <ele>1672.1</ele>
        <time>2021-12-23T06:08:46Z</time>
      </trkpt>
      <trkpt lat="44.9204" lon="6.82525">
        <ele>1672.1</ele>
        <time>2021-12-23T06:08:47Z</time>
      </trkpt>
      <trkpt lat="44.92041" lon="6.82516">
        <ele>1672</ele>
        <time>2021-12-23T06:08:48Z</time>
      </trkpt>
      <trkpt lat="44.92043" lon="6.8251">
        <ele>1671.6</ele>
        <time>2021-12-23T06:08:54Z</time>
      </trkpt>
      <trkpt lat="44.92046" lon="6.82497">
        <ele>1671.8</ele>
        <time>2021-12-23T06:09:11Z</time>
      </trkpt>
      <trkpt lat="44.92043" lon="6.82502">
        <ele>1672.5</ele>
        <time>2021-12-23T06:09:26Z</time>
      </trkpt>
      <trkpt lat="44.92044" lon="6.8249">
        <ele>1674.6</ele>
        <time>2021-12-23T06:09:46Z</time>
      </trkpt>
      <trkpt lat="44.92044" lon="6.82484">
        <ele>1674.7</ele>
        <time>2021-12-23T06:09:51Z</time>
      </trkpt>
      <trkpt lat="44.92046" lon="6.82478">
        <ele>1674.7</ele>
        <time>2021-12-23T06:09:55Z</time>
      </trkpt>
      <trkpt lat="44.9205" lon="6.82469">
        <ele>1675</ele>
        <time>2021-12-23T06:10:06Z</time>
      </trkpt>
      <trkpt lat="44.92052" lon="6.82463">
        <ele>1674.9</ele>
        <time>2021-12-23T06:10:18Z</time>
      </trkpt>
      <trkpt lat="44.9205" lon="6.82457">
        <ele>1674.3</ele>
        <time>2021-12-23T06:10:29Z</time>
      </trkpt>
      <trkpt lat="44.9205" lon="6.8245">
        <ele>1672.5</ele>
        <time>2021-12-23T06:10:40Z</time>
      </trkpt>
      <trkpt lat="44.9205" lon="6.82442">
        <ele>1672.1</ele>
        <time>2021-12-23T06:10:42Z</time>
      </trkpt>
      <trkpt lat="44.92051" lon="6.82435">
        <ele>1671.7</ele>
        <time>2021-12-23T06:10:44Z</time>
      </trkpt>
      <trkpt lat="44.92053" lon="6.82411">
        <ele>1671.6</ele>
        <time>2021-12-23T06:10:46Z</time>
      </trkpt>
      <trkpt lat="44.92054" lon="6.82404">
        <ele>1671.1</ele>
        <time>2021-12-23T06:10:48Z</time>
      </trkpt>
      <trkpt lat="44.92055" lon="6.824">
        <ele>1670.9</ele>
        <time>2021-12-23T06:10:49Z</time>
      </trkpt>
      <trkpt lat="44.92056" lon="6.82393">
        <ele>1670.5</ele>
        <time>2021-12-23T06:10:51Z</time>
      </trkpt>
      <trkpt lat="44.92058" lon="6.82383">
        <ele>1669.7</ele>
        <time>2021-12-23T06:10:54Z</time>
      </trkpt>
      <trkpt lat="44.9206" lon="6.82373">
        <ele>1669.1</ele>
        <time>2021-12-23T06:10:56Z</time>
      </trkpt>
      <trkpt lat="44.9206" lon="6.82365">
        <ele>1668.5</ele>
        <time>2021-12-23T06:10:58Z</time>
      </trkpt>
      <trkpt lat="44.92055" lon="6.82395">
        <ele>1670</ele>
        <time>2021-12-23T06:11:00Z</time>
      </trkpt>
      <trkpt lat="44.92053" lon="6.82404">
        <ele>1670.4</ele>
        <time>2021-12-23T06:11:01Z</time>
      </trkpt>
      <trkpt lat="44.92052" lon="6.82414">
        <ele>1670.7</ele>
        <time>2021-12-23T06:11:02Z</time>
      </trkpt>
      <trkpt lat="44.92049" lon="6.82437">
        <ele>1669.2</ele>
        <time>2021-12-23T06:11:07Z</time>
      </trkpt>
      <trkpt lat="44.9205" lon="6.82439">
        <ele>1668.5</ele>
        <time>2021-12-23T06:11:11Z</time>
      </trkpt>
      <trkpt lat="44.92051" lon="6.8244">
        <ele>1668.3</ele>
        <time>2021-12-23T06:11:12Z</time>
      </trkpt>
      <trkpt lat="44.9205" lon="6.82447">
        <ele>1667.5</ele>
        <time>2021-12-23T06:11:18Z</time>
      </trkpt>
      <trkpt lat="44.92047" lon="6.82453">
        <ele>1667</ele>
        <time>2021-12-23T06:11:29Z</time>
      </trkpt>
      <trkpt lat="44.92046" lon="6.82444">
        <ele>1666.2</ele>
        <time>2021-12-23T06:11:56Z</time>
      </trkpt>
      <trkpt lat="44.92048" lon="6.82437">
        <ele>1665.5</ele>
        <time>2021-12-23T06:12:00Z</time>
      </trkpt>
      <trkpt lat="44.92048" lon="6.82446">
        <ele>1665.1</ele>
        <time>2021-12-23T06:12:04Z</time>
      </trkpt>
      <trkpt lat="44.92051" lon="6.8245">
        <ele>1664.3</ele>
        <time>2021-12-23T06:12:11Z</time>
      </trkpt>
      <trkpt lat="44.92056" lon="6.82452">
        <ele>1663.6</ele>
        <time>2021-12-23T06:12:18Z</time>
      </trkpt>
      <trkpt lat="44.92054" lon="6.82473">
        <ele>1663.5</ele>
        <time>2021-12-23T06:12:22Z</time>
      </trkpt>
      <trkpt lat="44.92053" lon="6.82481">
        <ele>1663.5</ele>
        <time>2021-12-23T06:12:25Z</time>
      </trkpt>
      <trkpt lat="44.92051" lon="6.82488">
        <ele>1663.4</ele>
        <time>2021-12-23T06:12:30Z</time>
      </trkpt>
      <trkpt lat="44.92049" lon="6.82495">
        <ele>1663.2</ele>
        <time>2021-12-23T06:12:40Z</time>
      </trkpt>
      <trkpt lat="44.92049" lon="6.82504">
        <ele>1663.5</ele>
        <time>2021-12-23T06:12:49Z</time>
      </trkpt>
      <trkpt lat="44.92047" lon="6.82512">
        <ele>1663.8</ele>
        <time>2021-12-23T06:12:54Z</time>
      </trkpt>
      <trkpt lat="44.92047" lon="6.82503">
        <ele>1664</ele>
        <time>2021-12-23T06:13:00Z</time>
      </trkpt>
      <trkpt lat="44.92048" lon="6.82497">
        <ele>1664.6</ele>
        <time>2021-12-23T06:13:11Z</time>
      </trkpt>
      <trkpt lat="44.92045" lon="6.82506">
        <ele>1665</ele>
        <time>2021-12-23T06:13:21Z</time>
      </trkpt>
      <trkpt lat="44.92046" lon="6.82498">
        <ele>1665.1</ele>
        <time>2021-12-23T06:13:29Z</time>
      </trkpt>
      <trkpt lat="44.92044" lon="6.82505">
        <ele>1665</ele>
        <time>2021-12-23T06:13:34Z</time>
      </trkpt>
      <trkpt lat="44.92043" lon="6.82512">
        <ele>1664.9</ele>
        <time>2021-12-23T06:13:36Z</time>
      </trkpt>
      <trkpt lat="44.92042" lon="6.8252">
        <ele>1664.9</ele>
        <time>2021-12-23T06:13:38Z</time>
      </trkpt>
      <trkpt lat="44.92041" lon="6.8253">
        <ele>1664.8</ele>
        <time>2021-12-23T06:13:40Z</time>
      </trkpt>
      <trkpt lat="44.9204" lon="6.8254">
        <ele>1664.8</ele>
        <time>2021-12-23T06:13:43Z</time>
      </trkpt>
      <trkpt lat="44.92039" lon="6.82548">
        <ele>1664.8</ele>
        <time>2021-12-23T06:13:44Z</time>
      </trkpt>
      <trkpt lat="44.92037" lon="6.82555">
        <ele>1664.8</ele>
        <time>2021-12-23T06:13:45Z</time>
      </trkpt>
      <trkpt lat="44.92037" lon="6.82554">
        <ele>1664.8</ele>
        <time>2021-12-23T06:13:46Z</time>
      </trkpt>
      <trkpt lat="44.92035" lon="6.82565">
        <ele>1664.8</ele>
        <time>2021-12-23T06:13:48Z</time>
      </trkpt>
      <trkpt lat="44.92034" lon="6.82572">
        <ele>1664.7</ele>
        <time>2021-12-23T06:13:50Z</time>
      </trkpt>
      <trkpt lat="44.92032" lon="6.82578">
        <ele>1664.7</ele>
        <time>2021-12-23T06:13:51Z</time>
      </trkpt>
      <trkpt lat="44.9203" lon="6.82587">
        <ele>1664.6</ele>
        <time>2021-12-23T06:13:53Z</time>
      </trkpt>
      <trkpt lat="44.92028" lon="6.82594">
        <ele>1664.5</ele>
        <time>2021-12-23T06:13:55Z</time>
      </trkpt>
      <trkpt lat="44.92026" lon="6.82605">
        <ele>1664.6</ele>
        <time>2021-12-23T06:13:57Z</time>
      </trkpt>
      <trkpt lat="44.92024" lon="6.82611">
        <ele>1664.6</ele>
        <time>2021-12-23T06:13:58Z</time>
      </trkpt>
      <trkpt lat="44.92021" lon="6.82621">
        <ele>1664.6</ele>
        <time>2021-12-23T06:14:00Z</time>
      </trkpt>
      <trkpt lat="44.9202" lon="6.82631">
        <ele>1664.8</ele>
        <time>2021-12-23T06:14:02Z</time>
      </trkpt>
      <trkpt lat="44.9202" lon="6.82638">
        <ele>1665</ele>
        <time>2021-12-23T06:14:04Z</time>
      </trkpt>
      <trkpt lat="44.92019" lon="6.82646">
        <ele>1665.2</ele>
        <time>2021-12-23T06:14:06Z</time>
      </trkpt>
      <trkpt lat="44.92018" lon="6.82653">
        <ele>1665.6</ele>
        <time>2021-12-23T06:14:08Z</time>
      </trkpt>
      <trkpt lat="44.92015" lon="6.82665">
        <ele>1665.6</ele>
        <time>2021-12-23T06:14:10Z</time>
      </trkpt>
      <trkpt lat="44.92011" lon="6.82677">
        <ele>1665.6</ele>
        <time>2021-12-23T06:14:12Z</time>
      </trkpt>
      <trkpt lat="44.9201" lon="6.82685">
        <ele>1665.6</ele>
        <time>2021-12-23T06:14:13Z</time>
      </trkpt>
      <trkpt lat="44.92009" lon="6.82695">
        <ele>1665.9</ele>
        <time>2021-12-23T06:14:15Z</time>
      </trkpt>
      <trkpt lat="44.92011" lon="6.82703">
        <ele>1666.3</ele>
        <time>2021-12-23T06:14:19Z</time>
      </trkpt>
      <trkpt lat="44.9201" lon="6.8271">
        <ele>1666.3</ele>
        <time>2021-12-23T06:14:20Z</time>
      </trkpt>
      <trkpt lat="44.92007" lon="6.82725">
        <ele>1666.4</ele>
        <time>2021-12-23T06:14:21Z</time>
      </trkpt>
      <trkpt lat="44.92006" lon="6.82733">
        <ele>1666.4</ele>
        <time>2021-12-23T06:14:22Z</time>
      </trkpt>
      <trkpt lat="44.92007" lon="6.82726">
        <ele>1666.6</ele>
        <time>2021-12-23T06:14:23Z</time>
      </trkpt>
      <trkpt lat="44.92012" lon="6.82725">
        <ele>1668.1</ele>
        <time>2021-12-23T06:14:27Z</time>
      </trkpt>
      <trkpt lat="44.92021" lon="6.82702">
        <ele>1668.7</ele>
        <time>2021-12-23T06:14:28Z</time>
      </trkpt>
      <trkpt lat="44.92029" lon="6.82682">
        <ele>1669.3</ele>
        <time>2021-12-23T06:14:29Z</time>
      </trkpt>
      <trkpt lat="44.92033" lon="6.82673">
        <ele>1669.6</ele>
        <time>2021-12-23T06:14:30Z</time>
      </trkpt>
      <trkpt lat="44.92031" lon="6.82679">
        <ele>1669.7</ele>
        <time>2021-12-23T06:14:31Z</time>
      </trkpt>
      <trkpt lat="44.92029" lon="6.82681">
        <ele>1670.3</ele>
        <time>2021-12-23T06:14:36Z</time>
      </trkpt>
      <trkpt lat="44.92029" lon="6.82681">
        <ele>1670.6</ele>
        <time>2021-12-23T06:14:37Z</time>
      </trkpt>
      <trkpt lat="44.9203" lon="6.82663">
        <ele>1671.5</ele>
        <time>2021-12-23T06:14:42Z</time>
      </trkpt>
      <trkpt lat="44.92031" lon="6.82652">
        <ele>1671.6</ele>
        <time>2021-12-23T06:14:43Z</time>
      </trkpt>
      <trkpt lat="44.92032" lon="6.82644">
        <ele>1671.7</ele>
        <time>2021-12-23T06:14:44Z</time>
      </trkpt>
      <trkpt lat="44.92033" lon="6.82632">
        <ele>1671.5</ele>
        <time>2021-12-23T06:14:45Z</time>
      </trkpt>
      <trkpt lat="44.92033" lon="6.82621">
        <ele>1671.3</ele>
        <time>2021-12-23T06:14:46Z</time>
      </trkpt>
      <trkpt lat="44.92034" lon="6.82612">
        <ele>1671</ele>
        <time>2021-12-23T06:14:47Z</time>
      </trkpt>
      <trkpt lat="44.92035" lon="6.82606">
        <ele>1670.9</ele>
        <time>2021-12-23T06:14:48Z</time>
      </trkpt>
      <trkpt lat="44.92037" lon="6.82596">
        <ele>1670.8</ele>
        <time>2021-12-23T06:14:50Z</time>
      </trkpt>
      <trkpt lat="44.92038" lon="6.82585">
        <ele>1670.7</ele>
        <time>2021-12-23T06:14:52Z</time>
      </trkpt>
      <trkpt lat="44.9204" lon="6.82575">
        <ele>1670.6</ele>
        <time>2021-12-23T06:14:54Z</time>
      </trkpt>
      <trkpt lat="44.92041" lon="6.82563">
        <ele>1670.6</ele>
        <time>2021-12-23T06:14:56Z</time>
      </trkpt>
      <trkpt lat="44.92041" lon="6.82551">
        <ele>1670</ele>
        <time>2021-12-23T06:14:58Z</time>
      </trkpt>
      <trkpt lat="44.92041" lon="6.82544">
        <ele>1669.5</ele>
        <time>2021-12-23T06:14:59Z</time>
      </trkpt>
      <trkpt lat="44.92042" lon="6.82535">
        <ele>1669.5</ele>
        <time>2021-12-23T06:15:01Z</time>
      </trkpt>
      <trkpt lat="44.92042" lon="6.82533">
        <ele>1669.3</ele>
        <time>2021-12-23T06:15:02Z</time>
      </trkpt>
      <trkpt lat="44.92042" lon="6.82533">
        <ele>1669.3</ele>
        <time>2021-12-23T06:15:03Z</time>
      </trkpt>
      <trkpt lat="44.92045" lon="6.82521">
        <ele>1667.3</ele>
        <time>2021-12-23T06:15:24Z</time>
      </trkpt>
      <trkpt lat="44.92046" lon="6.82514">
        <ele>1667.2</ele>
        <time>2021-12-23T06:15:25Z</time>
      </trkpt>
      <trkpt lat="44.92046" lon="6.82501">
        <ele>1665.6</ele>
        <time>2021-12-23T06:15:42Z</time>
      </trkpt>
      <trkpt lat="44.92042" lon="6.82488">
        <ele>1663.4</ele>
        <time>2021-12-23T06:16:06Z</time>
      </trkpt>
      <trkpt lat="44.92036" lon="6.82475">
        <ele>1661.5</ele>
        <time>2021-12-23T06:17:04Z</time>
      </trkpt>
      <trkpt lat="44.92038" lon="6.82468">
        <ele>1661.9</ele>
        <time>2021-12-23T06:17:07Z</time>
      </trkpt>
      <trkpt lat="44.92039" lon="6.82455">
        <ele>1662.4</ele>
        <time>2021-12-23T06:17:16Z</time>
      </trkpt>
      <trkpt lat="44.92039" lon="6.82465">
        <ele>1662.3</ele>
        <time>2021-12-23T06:17:26Z</time>
      </trkpt>
      <trkpt lat="44.92042" lon="6.82471">
        <ele>1662.2</ele>
        <time>2021-12-23T06:17:29Z</time>
      </trkpt>
      <trkpt lat="44.92046" lon="6.82483">
        <ele>1662.1</ele>
        <time>2021-12-23T06:17:35Z</time>
      </trkpt>
      <trkpt lat="44.9204" lon="6.82505">
        <ele>1660.8</ele>
        <time>2021-12-23T06:17:46Z</time>
      </trkpt>
      <trkpt lat="44.92039" lon="6.82513">
        <ele>1661.1</ele>
        <time>2021-12-23T06:17:48Z</time>
      </trkpt>
      <trkpt lat="44.92037" lon="6.8253">
        <ele>1659</ele>
        <time>2021-12-23T06:18:18Z</time>
      </trkpt>
      <trkpt lat="44.92034" lon="6.82536">
        <ele>1657.5</ele>
        <time>2021-12-23T06:18:20Z</time>
      </trkpt>
      <trkpt lat="44.92033" lon="6.8254">
        <ele>1656.8</ele>
        <time>2021-12-23T06:18:22Z</time>
      </trkpt>
      <trkpt lat="44.9203" lon="6.82544">
        <ele>1655.7</ele>
        <time>2021-12-23T06:18:23Z</time>
      </trkpt>
      <trkpt lat="44.92028" lon="6.82549">
        <ele>1654.2</ele>
        <time>2021-12-23T06:18:25Z</time>
      </trkpt>
      <trkpt lat="44.92028" lon="6.82551">
        <ele>1653.8</ele>
        <time>2021-12-23T06:18:26Z</time>
      </trkpt>
      <trkpt lat="44.92027" lon="6.82552">
        <ele>1653.5</ele>
        <time>2021-12-23T06:18:28Z</time>
      </trkpt>
      <trkpt lat="44.92028" lon="6.82542">
        <ele>1653.1</ele>
        <time>2021-12-23T06:18:29Z</time>
      </trkpt>
      <trkpt lat="44.92028" lon="6.82544">
        <ele>1652.8</ele>
        <time>2021-12-23T06:18:30Z</time>
      </trkpt>
      <trkpt lat="44.9203" lon="6.82534">
        <ele>1652.5</ele>
        <time>2021-12-23T06:18:31Z</time>
      </trkpt>
      <trkpt lat="44.92031" lon="6.82526">
        <ele>1652.1</ele>
        <time>2021-12-23T06:18:33Z</time>
      </trkpt>
      <trkpt lat="44.92035" lon="6.82515">
        <ele>1650.8</ele>
        <time>2021-12-23T06:18:44Z</time>
      </trkpt>
      <trkpt lat="44.92039" lon="6.82498">
        <ele>1651.2</ele>
        <time>2021-12-23T06:19:07Z</time>
      </trkpt>
      <trkpt lat="44.92041" lon="6.82508">
        <ele>1652.5</ele>
        <time>2021-12-23T06:19:44Z</time>
      </trkpt>
      <trkpt lat="44.92042" lon="6.82515">
        <ele>1654.2</ele>
        <time>2021-12-23T06:19:56Z</time>
      </trkpt>
      <trkpt lat="44.92041" lon="6.82509">
        <ele>1654.4</ele>
        <time>2021-12-23T06:19:58Z</time>
      </trkpt>
      <trkpt lat="44.92041" lon="6.82492">
        <ele>1660.4</ele>
        <time>2021-12-23T06:20:15Z</time>
      </trkpt>
      <trkpt lat="44.92041" lon="6.82482">
        <ele>1661.3</ele>
        <time>2021-12-23T06:20:17Z</time>
      </trkpt>
      <trkpt lat="44.92042" lon="6.82464">
        <ele>1663.9</ele>
        <time>2021-12-23T06:20:22Z</time>
      </trkpt>
      <trkpt lat="44.92042" lon="6.82458">
        <ele>1664.9</ele>
        <time>2021-12-23T06:20:24Z</time>
      </trkpt>
      <trkpt lat="44.92044" lon="6.82441">
        <ele>1667.2</ele>
        <time>2021-12-23T06:20:29Z</time>
      </trkpt>
      <trkpt lat="44.92045" lon="6.82432">
        <ele>1668.3</ele>
        <time>2021-12-23T06:20:32Z</time>
      </trkpt>
      <trkpt lat="44.92051" lon="6.82444">
        <ele>1671.5</ele>
        <time>2021-12-23T06:21:16Z</time>
      </trkpt>
      <trkpt lat="44.92053" lon="6.8246">
        <ele>1672</ele>
        <time>2021-12-23T06:21:30Z</time>
      </trkpt>
      <trkpt lat="44.92046" lon="6.82473">
        <ele>1671.9</ele>
        <time>2021-12-23T06:24:04Z</time>
      </trkpt>
      <trkpt lat="44.92049" lon="6.82462">
        <ele>1670.6</ele>
        <time>2021-12-23T06:24:21Z</time>
      </trkpt>
      <trkpt lat="44.92044" lon="6.82448">
        <ele>1670.8</ele>
        <time>2021-12-23T06:25:13Z</time>
      </trkpt>
      <trkpt lat="44.92043" lon="6.8246">
        <ele>1668.6</ele>
        <time>2021-12-23T06:25:36Z</time>
      </trkpt>
      <trkpt lat="44.92043" lon="6.82478">
        <ele>1666.9</ele>
        <time>2021-12-23T06:25:50Z</time>
      </trkpt>
      <trkpt lat="44.92043" lon="6.82485">
        <ele>1666.3</ele>
        <time>2021-12-23T06:25:51Z</time>
      </trkpt>
      <trkpt lat="44.92039" lon="6.82499">
        <ele>1666.1</ele>
        <time>2021-12-23T06:26:04Z</time>
      </trkpt>
      <trkpt lat="44.92037" lon="6.8251">
        <ele>1666.1</ele>
        <time>2021-12-23T06:26:10Z</time>
      </trkpt>
      <trkpt lat="44.92035" lon="6.82514">
        <ele>1666.1</ele>
        <time>2021-12-23T06:26:12Z</time>
      </trkpt>
      <trkpt lat="44.92034" lon="6.82516">
        <ele>1666.1</ele>
        <time>2021-12-23T06:26:13Z</time>
      </trkpt>
      <trkpt lat="44.92033" lon="6.82521">
        <ele>1666.1</ele>
        <time>2021-12-23T06:26:20Z</time>
      </trkpt>
      <trkpt lat="44.92033" lon="6.82518">
        <ele>1666.1</ele>
        <time>2021-12-23T06:26:21Z</time>
      </trkpt>
      <trkpt lat="44.92039" lon="6.82508">
        <ele>1665.6</ele>
        <time>2021-12-23T06:26:48Z</time>
      </trkpt>
      <trkpt lat="44.92047" lon="6.82496">
        <ele>1667.5</ele>
        <time>2021-12-23T06:27:14Z</time>
      </trkpt>
      <trkpt lat="44.92048" lon="6.82489">
        <ele>1668.5</ele>
        <time>2021-12-23T06:27:17Z</time>
      </trkpt>
      <trkpt lat="44.92053" lon="6.82503">
        <ele>1670.9</ele>
        <time>2021-12-23T06:27:51Z</time>
      </trkpt>
      <trkpt lat="44.92052" lon="6.82519">
        <ele>1671.6</ele>
        <time>2021-12-23T06:27:58Z</time>
      </trkpt>
      <trkpt lat="44.92047" lon="6.82507">
        <ele>1670.9</ele>
        <time>2021-12-23T06:28:26Z</time>
      </trkpt>
      <trkpt lat="44.92048" lon="6.82499">
        <ele>1670.7</ele>
        <time>2021-12-23T06:28:29Z</time>
      </trkpt>
      <trkpt lat="44.92046" lon="6.82485">
        <ele>1669.5</ele>
        <time>2021-12-23T06:28:42Z</time>
      </trkpt>
      <trkpt lat="44.92049" lon="6.82466">
        <ele>1669.4</ele>
        <time>2021-12-23T06:28:54Z</time>
      </trkpt>
      <trkpt lat="44.9205" lon="6.8245">
        <ele>1669.3</ele>
        <time>2021-12-23T06:29:05Z</time>
      </trkpt>
      <trkpt lat="44.92049" lon="6.82463">
        <ele>1667.1</ele>
        <time>2021-12-23T06:29:42Z</time>
      </trkpt>
      <trkpt lat="44.92049" lon="6.82479">
        <ele>1666.5</ele>
        <time>2021-12-23T06:29:57Z</time>
      </trkpt>
      <trkpt lat="44.92046" lon="6.82498">
        <ele>1666.7</ele>
        <time>2021-12-23T06:30:09Z</time>
      </trkpt>
      <trkpt lat="44.9204" lon="6.82502">
        <ele>1674.9</ele>
        <time>2021-12-23T06:31:57Z</time>
      </trkpt>
      <trkpt lat="44.92039" lon="6.82503">
        <ele>1676.8</ele>
        <time>2021-12-23T06:32:01Z</time>
      </trkpt>
      <trkpt lat="44.92038" lon="6.82504">
        <ele>1677.4</ele>
        <time>2021-12-23T06:32:02Z</time>
      </trkpt>
      <trkpt lat="44.92038" lon="6.82504">
        <ele>1677.7</ele>
        <time>2021-12-23T06:32:03Z</time>
      </trkpt>
      <trkpt lat="44.92039" lon="6.82518">
        <ele>1679.1</ele>
        <time>2021-12-23T06:32:25Z</time>
      </trkpt>
      <trkpt lat="44.9204" lon="6.82534">
        <ele>1679.3</ele>
        <time>2021-12-23T06:32:37Z</time>
      </trkpt>
      <trkpt lat="44.92043" lon="6.82521">
        <ele>1678.9</ele>
        <time>2021-12-23T06:32:47Z</time>
      </trkpt>
      <trkpt lat="44.92044" lon="6.82506">
        <ele>1678.5</ele>
        <time>2021-12-23T06:33:00Z</time>
      </trkpt>
      <trkpt lat="44.92046" lon="6.82497">
        <ele>1677.7</ele>
        <time>2021-12-23T06:34:03Z</time>
      </trkpt>
      <trkpt lat="44.92042" lon="6.82494">
        <ele>1676.4</ele>
        <time>2021-12-23T06:34:06Z</time>
      </trkpt>
      <trkpt lat="44.92046" lon="6.82494">
        <ele>1674.2</ele>
        <time>2021-12-23T06:34:36Z</time>
      </trkpt>
      <trkpt lat="44.92043" lon="6.82501">
        <ele>1670.4</ele>
        <time>2021-12-23T06:34:43Z</time>
      </trkpt>
      <trkpt lat="44.92035" lon="6.8251">
        <ele>1666.7</ele>
        <time>2021-12-23T06:34:56Z</time>
      </trkpt>
      <trkpt lat="44.92031" lon="6.82515">
        <ele>1665.7</ele>
        <time>2021-12-23T06:35:03Z</time>
      </trkpt>
      <trkpt lat="44.92026" lon="6.82525">
        <ele>1663.2</ele>
        <time>2021-12-23T06:35:08Z</time>
      </trkpt>
      <trkpt lat="44.9202" lon="6.82535">
        <ele>1659</ele>
        <time>2021-12-23T06:35:23Z</time>
      </trkpt>
      <trkpt lat="44.92029" lon="6.82532">
        <ele>1657.7</ele>
        <time>2021-12-23T06:35:44Z</time>
      </trkpt>
      <trkpt lat="44.92034" lon="6.82519">
        <ele>1657.9</ele>
        <time>2021-12-23T06:35:58Z</time>
      </trkpt>
      <trkpt lat="44.92043" lon="6.82509">
        <ele>1657.6</ele>
        <time>2021-12-23T06:36:33Z</time>
      </trkpt>
      <trkpt lat="44.92042" lon="6.82496">
        <ele>1657.7</ele>
        <time>2021-12-23T06:37:20Z</time>
      </trkpt>
      <trkpt lat="44.92049" lon="6.82486">
        <ele>1662.4</ele>
        <time>2021-12-23T06:38:10Z</time>
      </trkpt>
      <trkpt lat="44.92045" lon="6.82497">
        <ele>1665.1</ele>
        <time>2021-12-23T06:38:59Z</time>
      </trkpt>
      <trkpt lat="44.92045" lon="6.8251">
        <ele>1666</ele>
        <time>2021-12-23T06:39:15Z</time>
      </trkpt>
      <trkpt lat="44.92043" lon="6.82498">
        <ele>1665.3</ele>
        <time>2021-12-23T06:39:43Z</time>
      </trkpt>
      <trkpt lat="44.92042" lon="6.82507">
        <ele>1666.8</ele>
        <time>2021-12-23T06:40:21Z</time>
      </trkpt>
      <trkpt lat="44.92045" lon="6.82494">
        <ele>1667.1</ele>
        <time>2021-12-23T06:40:42Z</time>
      </trkpt>
      <trkpt lat="44.92049" lon="6.82479">
        <ele>1668.4</ele>
        <time>2021-12-23T06:41:28Z</time>
      </trkpt>
      <trkpt lat="44.92048" lon="6.82492">
        <ele>1668.3</ele>
        <time>2021-12-23T06:41:33Z</time>
      </trkpt>
      <trkpt lat="44.92048" lon="6.82506">
        <ele>1669.4</ele>
        <time>2021-12-23T06:42:36Z</time>
      </trkpt>
      <trkpt lat="44.92046" lon="6.82514">
        <ele>1667.5</ele>
        <time>2021-12-23T06:42:38Z</time>
      </trkpt>
      <trkpt lat="44.92048" lon="6.82504">
        <ele>1660.1</ele>
        <time>2021-12-23T06:43:15Z</time>
      </trkpt>
      <trkpt lat="44.92051" lon="6.8249">
        <ele>1658.2</ele>
        <time>2021-12-23T06:43:48Z</time>
      </trkpt>
      <trkpt lat="44.9206" lon="6.82492">
        <ele>1660.1</ele>
        <time>2021-12-23T06:45:01Z</time>
      </trkpt>
      <trkpt lat="44.92061" lon="6.82499">
        <ele>1660</ele>
        <time>2021-12-23T06:45:04Z</time>
      </trkpt>
      <trkpt lat="44.92053" lon="6.82504">
        <ele>1660.1</ele>
        <time>2021-12-23T06:45:30Z</time>
      </trkpt>
      <trkpt lat="44.92043" lon="6.82496">
        <ele>1669.9</ele>
        <time>2021-12-23T06:46:20Z</time>
      </trkpt>
      <trkpt lat="44.92051" lon="6.82499">
        <ele>1677</ele>
        <time>2021-12-23T06:48:24Z</time>
      </trkpt>
      <trkpt lat="44.92047" lon="6.8251">
        <ele>1677.7</ele>
        <time>2021-12-23T06:51:41Z</time>
      </trkpt>
      <trkpt lat="44.92048" lon="6.8252">
        <ele>1678</ele>
        <time>2021-12-23T06:52:28Z</time>
      </trkpt>
      <trkpt lat="44.92041" lon="6.82532">
        <ele>1677.7</ele>
        <time>2021-12-23T06:53:04Z</time>
      </trkpt>
      <trkpt lat="44.92039" lon="6.82519">
        <ele>1677.2</ele>
        <time>2021-12-23T06:53:21Z</time>
      </trkpt>
      <trkpt lat="44.92041" lon="6.82504">
        <ele>1676.5</ele>
        <time>2021-12-23T06:53:29Z</time>
      </trkpt>
      <trkpt lat="44.92042" lon="6.82496">
        <ele>1676.4</ele>
        <time>2021-12-23T06:53:31Z</time>
      </trkpt>
      <trkpt lat="44.92045" lon="6.82481">
        <ele>1677.7</ele>
        <time>2021-12-23T06:54:21Z</time>
      </trkpt>
      <trkpt lat="44.92045" lon="6.82493">
        <ele>1677.8</ele>
        <time>2021-12-23T06:55:40Z</time>
      </trkpt>
      <trkpt lat="44.92044" lon="6.82504">
        <ele>1679.1</ele>
        <time>2021-12-23T06:55:42Z</time>
      </trkpt>
      <trkpt lat="44.92041" lon="6.8251">
        <ele>1679.4</ele>
        <time>2021-12-23T06:55:45Z</time>
      </trkpt>
      <trkpt lat="44.92041" lon="6.8251">
        <ele>1679.4</ele>
        <time>2021-12-23T06:55:46Z</time>
      </trkpt>
      <trkpt lat="44.9204" lon="6.8251">
        <ele>1679.4</ele>
        <time>2021-12-23T06:55:47Z</time>
      </trkpt>
      <trkpt lat="44.9204" lon="6.8251">
        <ele>1679.4</ele>
        <time>2021-12-23T06:55:48Z</time>
      </trkpt>
      <trkpt lat="44.92044" lon="6.82499">
        <ele>1678.9</ele>
        <time>2021-12-23T06:56:03Z</time>
      </trkpt>
      <trkpt lat="44.92044" lon="6.82485">
        <ele>1678.1</ele>
        <time>2021-12-23T06:56:54Z</time>
      </trkpt>
      <trkpt lat="44.92045" lon="6.82493">
        <ele>1676.7</ele>
        <time>2021-12-23T06:57:19Z</time>
      </trkpt>
      <trkpt lat="44.92042" lon="6.82518">
        <ele>1675.7</ele>
        <time>2021-12-23T06:57:22Z</time>
      </trkpt>
      <trkpt lat="44.92041" lon="6.82531">
        <ele>1675.3</ele>
        <time>2021-12-23T06:57:23Z</time>
      </trkpt>
      <trkpt lat="44.92041" lon="6.82538">
        <ele>1675.2</ele>
        <time>2021-12-23T06:57:24Z</time>
      </trkpt>
      <trkpt lat="44.92041" lon="6.82544">
        <ele>1675.1</ele>
        <time>2021-12-23T06:57:25Z</time>
      </trkpt>
      <trkpt lat="44.92042" lon="6.82547">
        <ele>1674.9</ele>
        <time>2021-12-23T06:57:26Z</time>
      </trkpt>
      <trkpt lat="44.92042" lon="6.82555">
        <ele>1674.7</ele>
        <time>2021-12-23T06:57:28Z</time>
      </trkpt>
      <trkpt lat="44.92043" lon="6.82563">
        <ele>1674.4</ele>
        <time>2021-12-23T06:57:31Z</time>
      </trkpt>
      <trkpt lat="44.92043" lon="6.8257">
        <ele>1674.2</ele>
        <time>2021-12-23T06:57:35Z</time>
      </trkpt>
      <trkpt lat="44.92042" lon="6.82571">
        <ele>1674</ele>
        <time>2021-12-23T06:57:40Z</time>
      </trkpt>
      <trkpt lat="44.92042" lon="6.8257">
        <ele>1673.9</ele>
        <time>2021-12-23T06:57:41Z</time>
      </trkpt>
      <trkpt lat="44.92043" lon="6.82557">
        <ele>1672.8</ele>
        <time>2021-12-23T06:58:17Z</time>
      </trkpt>
      <trkpt lat="44.92045" lon="6.82539">
        <ele>1672.9</ele>
        <time>2021-12-23T06:58:31Z</time>
      </trkpt>
      <trkpt lat="44.92045" lon="6.8252">
        <ele>1672.1</ele>
        <time>2021-12-23T06:58:43Z</time>
      </trkpt>
      <trkpt lat="44.92042" lon="6.82543">
        <ele>1670.6</ele>
        <time>2021-12-23T06:58:45Z</time>
      </trkpt>
      <trkpt lat="44.9204" lon="6.82551">
        <ele>1670.1</ele>
        <time>2021-12-23T06:58:46Z</time>
      </trkpt>
      <trkpt lat="44.92038" lon="6.82539">
        <ele>1669</ele>
        <time>2021-12-23T06:59:00Z</time>
      </trkpt>
      <trkpt lat="44.92041" lon="6.82527">
        <ele>1668.4</ele>
        <time>2021-12-23T06:59:19Z</time>
      </trkpt>
      <trkpt lat="44.92042" lon="6.82519">
        <ele>1668.7</ele>
        <time>2021-12-23T06:59:20Z</time>
      </trkpt>
      <trkpt lat="44.92046" lon="6.82514">
        <ele>1669</ele>
        <time>2021-12-23T06:59:25Z</time>
      </trkpt>
      <trkpt lat="44.92046" lon="6.82514">
        <ele>1669</ele>
        <time>2021-12-23T07:01:16Z</time>
      </trkpt>
      <trkpt lat="44.92043" lon="6.8251">
        <ele>1665.9</ele>
        <time>2021-12-23T07:01:17Z</time>
      </trkpt>
      <trkpt lat="44.92044" lon="6.82514">
        <ele>1665.9</ele>
        <time>2021-12-23T07:01:21Z</time>
      </trkpt>
      <trkpt lat="44.92044" lon="6.82515">
        <ele>1666</ele>
        <time>2021-12-23T07:01:22Z</time>
      </trkpt>
      <trkpt lat="44.92044" lon="6.82517">
        <ele>1666</ele>
        <time>2021-12-23T07:01:36Z</time>
      </trkpt>
      <trkpt lat="44.92035" lon="6.82523">
        <ele>1665.7</ele>
        <time>2021-12-23T07:01:37Z</time>
      </trkpt>
      <trkpt lat="44.92035" lon="6.82523">
        <ele>1665.7</ele>
        <time>2021-12-23T07:01:38Z</time>
      </trkpt>
      <trkpt lat="44.92033" lon="6.82524">
        <ele>1665.6</ele>
        <time>2021-12-23T07:03:16Z</time>
      </trkpt>
      <trkpt lat="44.92024" lon="6.82522">
        <ele>1663.6</ele>
        <time>2021-12-23T07:03:17Z</time>
      </trkpt>
      <trkpt lat="44.92024" lon="6.82522">
        <ele>1663.5</ele>
        <time>2021-12-23T07:03:18Z</time>
      </trkpt>
      <trkpt lat="44.92024" lon="6.82521">
        <ele>1663.5</ele>
        <time>2021-12-23T07:06:37Z</time>
      </trkpt>
      <trkpt lat="44.92029" lon="6.82523">
        <ele>1669.3</ele>
        <time>2021-12-23T07:06:38Z</time>
      </trkpt>
      <trkpt lat="44.92034" lon="6.8252">
        <ele>1669.9</ele>
        <time>2021-12-23T07:06:40Z</time>
      </trkpt>
      <trkpt lat="44.9204" lon="6.82515">
        <ele>1670.8</ele>
        <time>2021-12-23T07:06:42Z</time>
      </trkpt>
      <trkpt lat="44.92045" lon="6.82511">
        <ele>1671.6</ele>
        <time>2021-12-23T07:06:44Z</time>
      </trkpt>
      <trkpt lat="44.92055" lon="6.82507">
        <ele>1672.3</ele>
        <time>2021-12-23T07:06:46Z</time>
      </trkpt>
      <trkpt lat="44.92059" lon="6.82503">
        <ele>1671.5</ele>
        <time>2021-12-23T07:06:47Z</time>
      </trkpt>
      <trkpt lat="44.92064" lon="6.82497">
        <ele>1670.9</ele>
        <time>2021-12-23T07:06:49Z</time>
      </trkpt>
      <trkpt lat="44.9207" lon="6.82491">
        <ele>1670.4</ele>
        <time>2021-12-23T07:06:51Z</time>
      </trkpt>
      <trkpt lat="44.92076" lon="6.82485">
        <ele>1669.7</ele>
        <time>2021-12-23T07:06:53Z</time>
      </trkpt>
      <trkpt lat="44.9208" lon="6.82483">
        <ele>1669</ele>
        <time>2021-12-23T07:06:54Z</time>
      </trkpt>
      <trkpt lat="44.92088" lon="6.82479">
        <ele>1667.4</ele>
        <time>2021-12-23T07:06:56Z</time>
      </trkpt>
      <trkpt lat="44.92092" lon="6.82476">
        <ele>1666.7</ele>
        <time>2021-12-23T07:06:57Z</time>
      </trkpt>
      <trkpt lat="44.92096" lon="6.82473">
        <ele>1666.3</ele>
        <time>2021-12-23T07:06:58Z</time>
      </trkpt>
      <trkpt lat="44.92102" lon="6.82471">
        <ele>1666</ele>
        <time>2021-12-23T07:06:59Z</time>
      </trkpt>
      <trkpt lat="44.92107" lon="6.8247">
        <ele>1665.3</ele>
        <time>2021-12-23T07:07:00Z</time>
      </trkpt>
      <trkpt lat="44.92112" lon="6.82471">
        <ele>1665</ele>
        <time>2021-12-23T07:07:01Z</time>
      </trkpt>
      <trkpt lat="44.92118" lon="6.82474">
        <ele>1663.8</ele>
        <time>2021-12-23T07:07:02Z</time>
      </trkpt>
      <trkpt lat="44.92124" lon="6.82476">
        <ele>1662.9</ele>
        <time>2021-12-23T07:07:03Z</time>
      </trkpt>
      <trkpt lat="44.92129" lon="6.82479">
        <ele>1662</ele>
        <time>2021-12-23T07:07:04Z</time>
      </trkpt>
      <trkpt lat="44.92135" lon="6.82482">
        <ele>1661.4</ele>
        <time>2021-12-23T07:07:05Z</time>
      </trkpt>
      <trkpt lat="44.92141" lon="6.82484">
        <ele>1660.5</ele>
        <time>2021-12-23T07:07:06Z</time>
      </trkpt>
      <trkpt lat="44.92147" lon="6.82486">
        <ele>1659.5</ele>
        <time>2021-12-23T07:07:07Z</time>
      </trkpt>
      <trkpt lat="44.92152" lon="6.82487">
        <ele>1658.9</ele>
        <time>2021-12-23T07:07:08Z</time>
      </trkpt>
      <trkpt lat="44.92158" lon="6.82488">
        <ele>1657.3</ele>
        <time>2021-12-23T07:07:09Z</time>
      </trkpt>
      <trkpt lat="44.92164" lon="6.82489">
        <ele>1655.9</ele>
        <time>2021-12-23T07:07:10Z</time>
      </trkpt>
      <trkpt lat="44.9217" lon="6.82489">
        <ele>1654.8</ele>
        <time>2021-12-23T07:07:11Z</time>
      </trkpt>
      <trkpt lat="44.92175" lon="6.8249">
        <ele>1654</ele>
        <time>2021-12-23T07:07:12Z</time>
      </trkpt>
      <trkpt lat="44.92181" lon="6.82489">
        <ele>1654.1</ele>
        <time>2021-12-23T07:07:13Z</time>
      </trkpt>
      <trkpt lat="44.92187" lon="6.82487">
        <ele>1654</ele>
        <time>2021-12-23T07:07:14Z</time>
      </trkpt>
      <trkpt lat="44.92192" lon="6.82485">
        <ele>1653</ele>
        <time>2021-12-23T07:07:15Z</time>
      </trkpt>
      <trkpt lat="44.92197" lon="6.82482">
        <ele>1652</ele>
        <time>2021-12-23T07:07:16Z</time>
      </trkpt>
      <trkpt lat="44.92202" lon="6.82479">
        <ele>1651.2</ele>
        <time>2021-12-23T07:07:17Z</time>
      </trkpt>
      <trkpt lat="44.92208" lon="6.82473">
        <ele>1650</ele>
        <time>2021-12-23T07:07:19Z</time>
      </trkpt>
      <trkpt lat="44.9221" lon="6.82465">
        <ele>1649</ele>
        <time>2021-12-23T07:07:21Z</time>
      </trkpt>
      <trkpt lat="44.92207" lon="6.82456">
        <ele>1646.3</ele>
        <time>2021-12-23T07:07:23Z</time>
      </trkpt>
      <trkpt lat="44.92202" lon="6.82454">
        <ele>1645</ele>
        <time>2021-12-23T07:07:24Z</time>
      </trkpt>
      <trkpt lat="44.92197" lon="6.82453">
        <ele>1644</ele>
        <time>2021-12-23T07:07:25Z</time>
      </trkpt>
      <trkpt lat="44.92192" lon="6.82452">
        <ele>1642.9</ele>
        <time>2021-12-23T07:07:26Z</time>
      </trkpt>
      <trkpt lat="44.92186" lon="6.82449">
        <ele>1642.4</ele>
        <time>2021-12-23T07:07:27Z</time>
      </trkpt>
      <trkpt lat="44.92181" lon="6.82445">
        <ele>1641.5</ele>
        <time>2021-12-23T07:07:28Z</time>
      </trkpt>
      <trkpt lat="44.92176" lon="6.82441">
        <ele>1640.4</ele>
        <time>2021-12-23T07:07:29Z</time>
      </trkpt>
      <trkpt lat="44.9217" lon="6.82438">
        <ele>1639.1</ele>
        <time>2021-12-23T07:07:30Z</time>
      </trkpt>
      <trkpt lat="44.92164" lon="6.82435">
        <ele>1638.2</ele>
        <time>2021-12-23T07:07:31Z</time>
      </trkpt>
      <trkpt lat="44.92159" lon="6.82433">
        <ele>1637.1</ele>
        <time>2021-12-23T07:07:32Z</time>
      </trkpt>
      <trkpt lat="44.92154" lon="6.82431">
        <ele>1636.2</ele>
        <time>2021-12-23T07:07:33Z</time>
      </trkpt>
      <trkpt lat="44.92148" lon="6.8243">
        <ele>1635.8</ele>
        <time>2021-12-23T07:07:34Z</time>
      </trkpt>
      <trkpt lat="44.92143" lon="6.82429">
        <ele>1634.8</ele>
        <time>2021-12-23T07:07:35Z</time>
      </trkpt>
      <trkpt lat="44.92138" lon="6.82428">
        <ele>1633.8</ele>
        <time>2021-12-23T07:07:36Z</time>
      </trkpt>
      <trkpt lat="44.9213" lon="6.82426">
        <ele>1632.2</ele>
        <time>2021-12-23T07:07:38Z</time>
      </trkpt>
      <trkpt lat="44.92127" lon="6.8242">
        <ele>1629.8</ele>
        <time>2021-12-23T07:07:40Z</time>
      </trkpt>
      <trkpt lat="44.92131" lon="6.82414">
        <ele>1628.2</ele>
        <time>2021-12-23T07:07:42Z</time>
      </trkpt>
      <trkpt lat="44.92139" lon="6.82407">
        <ele>1627.3</ele>
        <time>2021-12-23T07:07:44Z</time>
      </trkpt>
      <trkpt lat="44.92145" lon="6.82402">
        <ele>1628.3</ele>
        <time>2021-12-23T07:07:45Z</time>
      </trkpt>
      <trkpt lat="44.92149" lon="6.82397">
        <ele>1628.8</ele>
        <time>2021-12-23T07:07:46Z</time>
      </trkpt>
      <trkpt lat="44.92154" lon="6.82391">
        <ele>1628.4</ele>
        <time>2021-12-23T07:07:47Z</time>
      </trkpt>
      <trkpt lat="44.92159" lon="6.82383">
        <ele>1628.2</ele>
        <time>2021-12-23T07:07:48Z</time>
      </trkpt>
      <trkpt lat="44.92167" lon="6.82375">
        <ele>1627.8</ele>
        <time>2021-12-23T07:07:49Z</time>
      </trkpt>
      <trkpt lat="44.92175" lon="6.8237">
        <ele>1626.9</ele>
        <time>2021-12-23T07:07:50Z</time>
      </trkpt>
      <trkpt lat="44.92183" lon="6.82366">
        <ele>1626.3</ele>
        <time>2021-12-23T07:07:51Z</time>
      </trkpt>
      <trkpt lat="44.92191" lon="6.82363">
        <ele>1625.7</ele>
        <time>2021-12-23T07:07:52Z</time>
      </trkpt>
      <trkpt lat="44.92199" lon="6.82359">
        <ele>1625.3</ele>
        <time>2021-12-23T07:07:53Z</time>
      </trkpt>
      <trkpt lat="44.92207" lon="6.82355">
        <ele>1625</ele>
        <time>2021-12-23T07:07:54Z</time>
      </trkpt>
      <trkpt lat="44.92215" lon="6.82351">
        <ele>1624.5</ele>
        <time>2021-12-23T07:07:55Z</time>
      </trkpt>
      <trkpt lat="44.92222" lon="6.82348">
        <ele>1623</ele>
        <time>2021-12-23T07:07:56Z</time>
      </trkpt>
      <trkpt lat="44.92229" lon="6.82343">
        <ele>1621.6</ele>
        <time>2021-12-23T07:07:57Z</time>
      </trkpt>
      <trkpt lat="44.92236" lon="6.82337">
        <ele>1620.4</ele>
        <time>2021-12-23T07:07:58Z</time>
      </trkpt>
      <trkpt lat="44.92241" lon="6.82328">
        <ele>1618.7</ele>
        <time>2021-12-23T07:07:59Z</time>
      </trkpt>
      <trkpt lat="44.92244" lon="6.82318">
        <ele>1617.2</ele>
        <time>2021-12-23T07:08:00Z</time>
      </trkpt>
      <trkpt lat="44.92248" lon="6.82308">
        <ele>1615.5</ele>
        <time>2021-12-23T07:08:01Z</time>
      </trkpt>
      <trkpt lat="44.92252" lon="6.82299">
        <ele>1614.7</ele>
        <time>2021-12-23T07:08:02Z</time>
      </trkpt>
      <trkpt lat="44.92256" lon="6.8229">
        <ele>1613.7</ele>
        <time>2021-12-23T07:08:03Z</time>
      </trkpt>
      <trkpt lat="44.92262" lon="6.82283">
        <ele>1613.7</ele>
        <time>2021-12-23T07:08:04Z</time>
      </trkpt>
      <trkpt lat="44.92268" lon="6.82276">
        <ele>1613.2</ele>
        <time>2021-12-23T07:08:05Z</time>
      </trkpt>
      <trkpt lat="44.92275" lon="6.8227">
        <ele>1612.6</ele>
        <time>2021-12-23T07:08:06Z</time>
      </trkpt>
      <trkpt lat="44.92281" lon="6.82264">
        <ele>1611.6</ele>
        <time>2021-12-23T07:08:07Z</time>
      </trkpt>
      <trkpt lat="44.92287" lon="6.82259">
        <ele>1610.8</ele>
        <time>2021-12-23T07:08:08Z</time>
      </trkpt>
      <trkpt lat="44.92293" lon="6.82254">
        <ele>1610</ele>
        <time>2021-12-23T07:08:09Z</time>
      </trkpt>
      <trkpt lat="44.923" lon="6.82251">
        <ele>1609.1</ele>
        <time>2021-12-23T07:08:10Z</time>
      </trkpt>
      <trkpt lat="44.92308" lon="6.82249">
        <ele>1608.3</ele>
        <time>2021-12-23T07:08:11Z</time>
      </trkpt>
      <trkpt lat="44.92315" lon="6.82249">
        <ele>1607.4</ele>
        <time>2021-12-23T07:08:12Z</time>
      </trkpt>
      <trkpt lat="44.92323" lon="6.82249">
        <ele>1606.8</ele>
        <time>2021-12-23T07:08:13Z</time>
      </trkpt>
      <trkpt lat="44.92331" lon="6.82249">
        <ele>1605.8</ele>
        <time>2021-12-23T07:08:14Z</time>
      </trkpt>
      <trkpt lat="44.92339" lon="6.82248">
        <ele>1605.4</ele>
        <time>2021-12-23T07:08:15Z</time>
      </trkpt>
      <trkpt lat="44.92347" lon="6.82244">
        <ele>1606</ele>
        <time>2021-12-23T07:08:16Z</time>
      </trkpt>
      <trkpt lat="44.92354" lon="6.82239">
        <ele>1605.5</ele>
        <time>2021-12-23T07:08:17Z</time>
      </trkpt>
      <trkpt lat="44.92361" lon="6.82235">
        <ele>1605.1</ele>
        <time>2021-12-23T07:08:18Z</time>
      </trkpt>
      <trkpt lat="44.92367" lon="6.8223">
        <ele>1605.2</ele>
        <time>2021-12-23T07:08:19Z</time>
      </trkpt>
      <trkpt lat="44.92374" lon="6.82226">
        <ele>1605.3</ele>
        <time>2021-12-23T07:08:20Z</time>
      </trkpt>
      <trkpt lat="44.92382" lon="6.82223">
        <ele>1604.1</ele>
        <time>2021-12-23T07:08:21Z</time>
      </trkpt>
      <trkpt lat="44.92391" lon="6.82221">
        <ele>1603</ele>
        <time>2021-12-23T07:08:22Z</time>
      </trkpt>
      <trkpt lat="44.924" lon="6.82218">
        <ele>1601.7</ele>
        <time>2021-12-23T07:08:23Z</time>
      </trkpt>
      <trkpt lat="44.92408" lon="6.82217">
        <ele>1600.8</ele>
        <time>2021-12-23T07:08:24Z</time>
      </trkpt>
      <trkpt lat="44.92417" lon="6.82215">
        <ele>1599.9</ele>
        <time>2021-12-23T07:08:25Z</time>
      </trkpt>
      <trkpt lat="44.92426" lon="6.82213">
        <ele>1599.6</ele>
        <time>2021-12-23T07:08:26Z</time>
      </trkpt>
      <trkpt lat="44.92435" lon="6.82212">
        <ele>1599.1</ele>
        <time>2021-12-23T07:08:27Z</time>
      </trkpt>
      <trkpt lat="44.92443" lon="6.82213">
        <ele>1598.6</ele>
        <time>2021-12-23T07:08:28Z</time>
      </trkpt>
      <trkpt lat="44.92452" lon="6.82214">
        <ele>1597.8</ele>
        <time>2021-12-23T07:08:29Z</time>
      </trkpt>
      <trkpt lat="44.9246" lon="6.82217">
        <ele>1596.6</ele>
        <time>2021-12-23T07:08:30Z</time>
      </trkpt>
      <trkpt lat="44.92468" lon="6.82222">
        <ele>1594.7</ele>
        <time>2021-12-23T07:08:31Z</time>
      </trkpt>
      <trkpt lat="44.92476" lon="6.82227">
        <ele>1593.7</ele>
        <time>2021-12-23T07:08:32Z</time>
      </trkpt>
      <trkpt lat="44.92484" lon="6.82232">
        <ele>1592.6</ele>
        <time>2021-12-23T07:08:33Z</time>
      </trkpt>
      <trkpt lat="44.92492" lon="6.82236">
        <ele>1591.8</ele>
        <time>2021-12-23T07:08:34Z</time>
      </trkpt>
      <trkpt lat="44.92501" lon="6.82238">
        <ele>1590.8</ele>
        <time>2021-12-23T07:08:35Z</time>
      </trkpt>
      <trkpt lat="44.9251" lon="6.8224">
        <ele>1589.7</ele>
        <time>2021-12-23T07:08:36Z</time>
      </trkpt>
      <trkpt lat="44.92519" lon="6.8224">
        <ele>1588.2</ele>
        <time>2021-12-23T07:08:37Z</time>
      </trkpt>
      <trkpt lat="44.92529" lon="6.8224">
        <ele>1587</ele>
        <time>2021-12-23T07:08:38Z</time>
      </trkpt>
      <trkpt lat="44.92538" lon="6.82239">
        <ele>1586.2</ele>
        <time>2021-12-23T07:08:39Z</time>
      </trkpt>
      <trkpt lat="44.92547" lon="6.82239">
        <ele>1585</ele>
        <time>2021-12-23T07:08:40Z</time>
      </trkpt>
      <trkpt lat="44.92555" lon="6.82239">
        <ele>1583.1</ele>
        <time>2021-12-23T07:08:41Z</time>
      </trkpt>
      <trkpt lat="44.92563" lon="6.8224">
        <ele>1581.4</ele>
        <time>2021-12-23T07:08:42Z</time>
      </trkpt>
      <trkpt lat="44.92571" lon="6.82242">
        <ele>1579.9</ele>
        <time>2021-12-23T07:08:43Z</time>
      </trkpt>
      <trkpt lat="44.92578" lon="6.82246">
        <ele>1578.8</ele>
        <time>2021-12-23T07:08:44Z</time>
      </trkpt>
      <trkpt lat="44.92585" lon="6.82251">
        <ele>1577.6</ele>
        <time>2021-12-23T07:08:45Z</time>
      </trkpt>
      <trkpt lat="44.92592" lon="6.82257">
        <ele>1576.5</ele>
        <time>2021-12-23T07:08:46Z</time>
      </trkpt>
      <trkpt lat="44.926" lon="6.82262">
        <ele>1575</ele>
        <time>2021-12-23T07:08:47Z</time>
      </trkpt>
      <trkpt lat="44.92607" lon="6.82266">
        <ele>1573.5</ele>
        <time>2021-12-23T07:08:48Z</time>
      </trkpt>
      <trkpt lat="44.92613" lon="6.82266">
        <ele>1572.4</ele>
        <time>2021-12-23T07:08:49Z</time>
      </trkpt>
      <trkpt lat="44.92619" lon="6.82258">
        <ele>1572.1</ele>
        <time>2021-12-23T07:08:50Z</time>
      </trkpt>
      <trkpt lat="44.92625" lon="6.82252">
        <ele>1571.6</ele>
        <time>2021-12-23T07:08:51Z</time>
      </trkpt>
      <trkpt lat="44.92633" lon="6.82247">
        <ele>1571.3</ele>
        <time>2021-12-23T07:08:52Z</time>
      </trkpt>
      <trkpt lat="44.9264" lon="6.82243">
        <ele>1570.7</ele>
        <time>2021-12-23T07:08:53Z</time>
      </trkpt>
      <trkpt lat="44.92648" lon="6.82239">
        <ele>1570.3</ele>
        <time>2021-12-23T07:08:54Z</time>
      </trkpt>
      <trkpt lat="44.92656" lon="6.82236">
        <ele>1569.3</ele>
        <time>2021-12-23T07:08:55Z</time>
      </trkpt>
      <trkpt lat="44.92666" lon="6.82234">
        <ele>1568.2</ele>
        <time>2021-12-23T07:08:56Z</time>
      </trkpt>
      <trkpt lat="44.92677" lon="6.82232">
        <ele>1567.2</ele>
        <time>2021-12-23T07:08:57Z</time>
      </trkpt>
      <trkpt lat="44.92687" lon="6.82229">
        <ele>1565.5</ele>
        <time>2021-12-23T07:08:58Z</time>
      </trkpt>
      <trkpt lat="44.92696" lon="6.82228">
        <ele>1564</ele>
        <time>2021-12-23T07:08:59Z</time>
      </trkpt>
      <trkpt lat="44.92705" lon="6.82229">
        <ele>1561.8</ele>
        <time>2021-12-23T07:09:00Z</time>
      </trkpt>
      <trkpt lat="44.92713" lon="6.82233">
        <ele>1559.3</ele>
        <time>2021-12-23T07:09:01Z</time>
      </trkpt>
      <trkpt lat="44.9272" lon="6.82238">
        <ele>1557.4</ele>
        <time>2021-12-23T07:09:02Z</time>
      </trkpt>
      <trkpt lat="44.92725" lon="6.82245">
        <ele>1557.5</ele>
        <time>2021-12-23T07:09:03Z</time>
      </trkpt>
      <trkpt lat="44.92731" lon="6.82253">
        <ele>1556.4</ele>
        <time>2021-12-23T07:09:04Z</time>
      </trkpt>
      <trkpt lat="44.92736" lon="6.82262">
        <ele>1555.4</ele>
        <time>2021-12-23T07:09:05Z</time>
      </trkpt>
      <trkpt lat="44.92741" lon="6.8227">
        <ele>1554.7</ele>
        <time>2021-12-23T07:09:06Z</time>
      </trkpt>
      <trkpt lat="44.92745" lon="6.82279">
        <ele>1554.3</ele>
        <time>2021-12-23T07:09:07Z</time>
      </trkpt>
      <trkpt lat="44.9275" lon="6.82288">
        <ele>1554.1</ele>
        <time>2021-12-23T07:09:08Z</time>
      </trkpt>
      <trkpt lat="44.92755" lon="6.82297">
        <ele>1553.7</ele>
        <time>2021-12-23T07:09:09Z</time>
      </trkpt>
      <trkpt lat="44.92761" lon="6.82305">
        <ele>1552.8</ele>
        <time>2021-12-23T07:09:10Z</time>
      </trkpt>
      <trkpt lat="44.92767" lon="6.82312">
        <ele>1551.1</ele>
        <time>2021-12-23T07:09:11Z</time>
      </trkpt>
      <trkpt lat="44.92777" lon="6.82321">
        <ele>1549</ele>
        <time>2021-12-23T07:09:12Z</time>
      </trkpt>
      <trkpt lat="44.92784" lon="6.8233">
        <ele>1544.4</ele>
        <time>2021-12-23T07:09:13Z</time>
      </trkpt>
      <trkpt lat="44.9279" lon="6.82337">
        <ele>1542.1</ele>
        <time>2021-12-23T07:09:14Z</time>
      </trkpt>
      <trkpt lat="44.92797" lon="6.82341">
        <ele>1539.5</ele>
        <time>2021-12-23T07:09:15Z</time>
      </trkpt>
      <trkpt lat="44.92804" lon="6.82346">
        <ele>1538.1</ele>
        <time>2021-12-23T07:09:16Z</time>
      </trkpt>
      <trkpt lat="44.92811" lon="6.82349">
        <ele>1536.8</ele>
        <time>2021-12-23T07:09:17Z</time>
      </trkpt>
      <trkpt lat="44.92819" lon="6.82353">
        <ele>1535.4</ele>
        <time>2021-12-23T07:09:18Z</time>
      </trkpt>
      <trkpt lat="44.92827" lon="6.82355">
        <ele>1534.4</ele>
        <time>2021-12-23T07:09:19Z</time>
      </trkpt>
      <trkpt lat="44.92835" lon="6.82356">
        <ele>1533.4</ele>
        <time>2021-12-23T07:09:20Z</time>
      </trkpt>
      <trkpt lat="44.92843" lon="6.82357">
        <ele>1532.5</ele>
        <time>2021-12-23T07:09:21Z</time>
      </trkpt>
      <trkpt lat="44.92853" lon="6.8236">
        <ele>1531.7</ele>
        <time>2021-12-23T07:09:22Z</time>
      </trkpt>
      <trkpt lat="44.92861" lon="6.82362">
        <ele>1530.6</ele>
        <time>2021-12-23T07:09:23Z</time>
      </trkpt>
      <trkpt lat="44.9287" lon="6.82365">
        <ele>1529.7</ele>
        <time>2021-12-23T07:09:24Z</time>
      </trkpt>
      <trkpt lat="44.92878" lon="6.82368">
        <ele>1528.8</ele>
        <time>2021-12-23T07:09:25Z</time>
      </trkpt>
      <trkpt lat="44.92886" lon="6.82373">
        <ele>1528</ele>
        <time>2021-12-23T07:09:26Z</time>
      </trkpt>
      <trkpt lat="44.92893" lon="6.82378">
        <ele>1527.2</ele>
        <time>2021-12-23T07:09:27Z</time>
      </trkpt>
      <trkpt lat="44.92901" lon="6.82387">
        <ele>1525.2</ele>
        <time>2021-12-23T07:09:28Z</time>
      </trkpt>
      <trkpt lat="44.92907" lon="6.82394">
        <ele>1524.2</ele>
        <time>2021-12-23T07:09:29Z</time>
      </trkpt>
      <trkpt lat="44.92913" lon="6.82402">
        <ele>1523.1</ele>
        <time>2021-12-23T07:09:30Z</time>
      </trkpt>
      <trkpt lat="44.92918" lon="6.82409">
        <ele>1521.9</ele>
        <time>2021-12-23T07:09:31Z</time>
      </trkpt>
      <trkpt lat="44.92924" lon="6.82417">
        <ele>1521.1</ele>
        <time>2021-12-23T07:09:32Z</time>
      </trkpt>
      <trkpt lat="44.9293" lon="6.82423">
        <ele>1520.6</ele>
        <time>2021-12-23T07:09:33Z</time>
      </trkpt>
      <trkpt lat="44.92937" lon="6.82426">
        <ele>1520.8</ele>
        <time>2021-12-23T07:09:34Z</time>
      </trkpt>
      <trkpt lat="44.92944" lon="6.82428">
        <ele>1522</ele>
        <time>2021-12-23T07:09:35Z</time>
      </trkpt>
      <trkpt lat="44.92957" lon="6.8242">
        <ele>1524.2</ele>
        <time>2021-12-23T07:09:36Z</time>
      </trkpt>
      <trkpt lat="44.92966" lon="6.82416">
        <ele>1525.1</ele>
        <time>2021-12-23T07:09:37Z</time>
      </trkpt>
      <trkpt lat="44.92973" lon="6.8241">
        <ele>1527.5</ele>
        <time>2021-12-23T07:09:38Z</time>
      </trkpt>
      <trkpt lat="44.9298" lon="6.82406">
        <ele>1529.4</ele>
        <time>2021-12-23T07:09:39Z</time>
      </trkpt>
      <trkpt lat="44.92988" lon="6.82402">
        <ele>1531.9</ele>
        <time>2021-12-23T07:09:40Z</time>
      </trkpt>
      <trkpt lat="44.92995" lon="6.82399">
        <ele>1533.5</ele>
        <time>2021-12-23T07:09:41Z</time>
      </trkpt>
      <trkpt lat="44.93002" lon="6.824">
        <ele>1534.2</ele>
        <time>2021-12-23T07:09:42Z</time>
      </trkpt>
      <trkpt lat="44.93008" lon="6.82402">
        <ele>1535.4</ele>
        <time>2021-12-23T07:09:43Z</time>
      </trkpt>
      <trkpt lat="44.93014" lon="6.82407">
        <ele>1535.7</ele>
        <time>2021-12-23T07:09:44Z</time>
      </trkpt>
      <trkpt lat="44.9302" lon="6.82413">
        <ele>1535</ele>
        <time>2021-12-23T07:09:45Z</time>
      </trkpt>
      <trkpt lat="44.93026" lon="6.82423">
        <ele>1533.7</ele>
        <time>2021-12-23T07:09:46Z</time>
      </trkpt>
      <trkpt lat="44.93031" lon="6.82433">
        <ele>1532.4</ele>
        <time>2021-12-23T07:09:47Z</time>
      </trkpt>
      <trkpt lat="44.93035" lon="6.82446">
        <ele>1531.2</ele>
        <time>2021-12-23T07:09:48Z</time>
      </trkpt>
      <trkpt lat="44.9304" lon="6.8246">
        <ele>1529.4</ele>
        <time>2021-12-23T07:09:49Z</time>
      </trkpt>
      <trkpt lat="44.93045" lon="6.82472">
        <ele>1527.2</ele>
        <time>2021-12-23T07:09:50Z</time>
      </trkpt>
      <trkpt lat="44.93051" lon="6.82483">
        <ele>1525.9</ele>
        <time>2021-12-23T07:09:51Z</time>
      </trkpt>
      <trkpt lat="44.93057" lon="6.82493">
        <ele>1525.4</ele>
        <time>2021-12-23T07:09:52Z</time>
      </trkpt>
      <trkpt lat="44.93063" lon="6.82504">
        <ele>1525.3</ele>
        <time>2021-12-23T07:09:53Z</time>
      </trkpt>
      <trkpt lat="44.9307" lon="6.82514">
        <ele>1525.3</ele>
        <time>2021-12-23T07:09:54Z</time>
      </trkpt>
      <trkpt lat="44.93076" lon="6.82526">
        <ele>1525.1</ele>
        <time>2021-12-23T07:09:55Z</time>
      </trkpt>
      <trkpt lat="44.93082" lon="6.82537">
        <ele>1524.5</ele>
        <time>2021-12-23T07:09:56Z</time>
      </trkpt>
      <trkpt lat="44.93088" lon="6.8255">
        <ele>1523.9</ele>
        <time>2021-12-23T07:09:57Z</time>
      </trkpt>
      <trkpt lat="44.93093" lon="6.82561">
        <ele>1523.6</ele>
        <time>2021-12-23T07:09:58Z</time>
      </trkpt>
      <trkpt lat="44.93098" lon="6.82572">
        <ele>1523.3</ele>
        <time>2021-12-23T07:09:59Z</time>
      </trkpt>
      <trkpt lat="44.93101" lon="6.82582">
        <ele>1522.2</ele>
        <time>2021-12-23T07:10:00Z</time>
      </trkpt>
      <trkpt lat="44.93105" lon="6.82593">
        <ele>1520.5</ele>
        <time>2021-12-23T07:10:01Z</time>
      </trkpt>
      <trkpt lat="44.93111" lon="6.82601">
        <ele>1517</ele>
        <time>2021-12-23T07:10:02Z</time>
      </trkpt>
      <trkpt lat="44.93119" lon="6.82609">
        <ele>1513</ele>
        <time>2021-12-23T07:10:03Z</time>
      </trkpt>
      <trkpt lat="44.93126" lon="6.82617">
        <ele>1510.3</ele>
        <time>2021-12-23T07:10:04Z</time>
      </trkpt>
      <trkpt lat="44.93133" lon="6.82622">
        <ele>1508.1</ele>
        <time>2021-12-23T07:10:05Z</time>
      </trkpt>
      <trkpt lat="44.93142" lon="6.82626">
        <ele>1506</ele>
        <time>2021-12-23T07:10:06Z</time>
      </trkpt>
      <trkpt lat="44.93151" lon="6.82631">
        <ele>1505.3</ele>
        <time>2021-12-23T07:10:07Z</time>
      </trkpt>
      <trkpt lat="44.93158" lon="6.82634">
        <ele>1505.6</ele>
        <time>2021-12-23T07:10:08Z</time>
      </trkpt>
      <trkpt lat="44.93166" lon="6.82639">
        <ele>1506.2</ele>
        <time>2021-12-23T07:10:09Z</time>
      </trkpt>
      <trkpt lat="44.93173" lon="6.82642">
        <ele>1506.5</ele>
        <time>2021-12-23T07:10:10Z</time>
      </trkpt>
      <trkpt lat="44.9318" lon="6.82649">
        <ele>1506</ele>
        <time>2021-12-23T07:10:11Z</time>
      </trkpt>
      <trkpt lat="44.93187" lon="6.82656">
        <ele>1505.9</ele>
        <time>2021-12-23T07:10:12Z</time>
      </trkpt>
      <trkpt lat="44.93195" lon="6.82664">
        <ele>1505.5</ele>
        <time>2021-12-23T07:10:13Z</time>
      </trkpt>
      <trkpt lat="44.93202" lon="6.82671">
        <ele>1505</ele>
        <time>2021-12-23T07:10:14Z</time>
      </trkpt>
      <trkpt lat="44.9321" lon="6.82677">
        <ele>1504.4</ele>
        <time>2021-12-23T07:10:15Z</time>
      </trkpt>
      <trkpt lat="44.93217" lon="6.82684">
        <ele>1503.8</ele>
        <time>2021-12-23T07:10:16Z</time>
      </trkpt>
      <trkpt lat="44.93225" lon="6.82691">
        <ele>1502.9</ele>
        <time>2021-12-23T07:10:17Z</time>
      </trkpt>
      <trkpt lat="44.93233" lon="6.82699">
        <ele>1501.6</ele>
        <time>2021-12-23T07:10:18Z</time>
      </trkpt>
      <trkpt lat="44.93243" lon="6.82704">
        <ele>1497.8</ele>
        <time>2021-12-23T07:10:19Z</time>
      </trkpt>
      <trkpt lat="44.93251" lon="6.82712">
        <ele>1494.7</ele>
        <time>2021-12-23T07:10:20Z</time>
      </trkpt>
      <trkpt lat="44.93257" lon="6.82722">
        <ele>1494.2</ele>
        <time>2021-12-23T07:10:21Z</time>
      </trkpt>
      <trkpt lat="44.93264" lon="6.8273">
        <ele>1492.9</ele>
        <time>2021-12-23T07:10:22Z</time>
      </trkpt>
      <trkpt lat="44.9327" lon="6.82739">
        <ele>1492.5</ele>
        <time>2021-12-23T07:10:23Z</time>
      </trkpt>
      <trkpt lat="44.93277" lon="6.8275">
        <ele>1493.4</ele>
        <time>2021-12-23T07:10:24Z</time>
      </trkpt>
      <trkpt lat="44.93282" lon="6.8276">
        <ele>1494.1</ele>
        <time>2021-12-23T07:10:25Z</time>
      </trkpt>
      <trkpt lat="44.93287" lon="6.8277">
        <ele>1494.5</ele>
        <time>2021-12-23T07:10:26Z</time>
      </trkpt>
      <trkpt lat="44.93291" lon="6.82779">
        <ele>1493.9</ele>
        <time>2021-12-23T07:10:27Z</time>
      </trkpt>
      <trkpt lat="44.93294" lon="6.8279">
        <ele>1493.8</ele>
        <time>2021-12-23T07:10:28Z</time>
      </trkpt>
      <trkpt lat="44.93297" lon="6.82803">
        <ele>1492.9</ele>
        <time>2021-12-23T07:10:29Z</time>
      </trkpt>
      <trkpt lat="44.93299" lon="6.82816">
        <ele>1491.1</ele>
        <time>2021-12-23T07:10:30Z</time>
      </trkpt>
      <trkpt lat="44.93302" lon="6.82828">
        <ele>1490.7</ele>
        <time>2021-12-23T07:10:31Z</time>
      </trkpt>
      <trkpt lat="44.93306" lon="6.82841">
        <ele>1490.3</ele>
        <time>2021-12-23T07:10:32Z</time>
      </trkpt>
      <trkpt lat="44.9331" lon="6.82853">
        <ele>1489.2</ele>
        <time>2021-12-23T07:10:33Z</time>
      </trkpt>
      <trkpt lat="44.93313" lon="6.82864">
        <ele>1487.9</ele>
        <time>2021-12-23T07:10:34Z</time>
      </trkpt>
      <trkpt lat="44.93317" lon="6.82876">
        <ele>1486.7</ele>
        <time>2021-12-23T07:10:35Z</time>
      </trkpt>
      <trkpt lat="44.93321" lon="6.82888">
        <ele>1485.9</ele>
        <time>2021-12-23T07:10:36Z</time>
      </trkpt>
      <trkpt lat="44.93327" lon="6.82899">
        <ele>1484.8</ele>
        <time>2021-12-23T07:10:37Z</time>
      </trkpt>
      <trkpt lat="44.93332" lon="6.82908">
        <ele>1483.8</ele>
        <time>2021-12-23T07:10:38Z</time>
      </trkpt>
      <trkpt lat="44.93337" lon="6.82917">
        <ele>1483</ele>
        <time>2021-12-23T07:10:39Z</time>
      </trkpt>
      <trkpt lat="44.93343" lon="6.82926">
        <ele>1482.3</ele>
        <time>2021-12-23T07:10:40Z</time>
      </trkpt>
      <trkpt lat="44.93348" lon="6.82935">
        <ele>1482.3</ele>
        <time>2021-12-23T07:10:41Z</time>
      </trkpt>
      <trkpt lat="44.93352" lon="6.82945">
        <ele>1482.2</ele>
        <time>2021-12-23T07:10:42Z</time>
      </trkpt>
      <trkpt lat="44.93354" lon="6.82954">
        <ele>1482.3</ele>
        <time>2021-12-23T07:10:43Z</time>
      </trkpt>
      <trkpt lat="44.93356" lon="6.82962">
        <ele>1482.2</ele>
        <time>2021-12-23T07:10:44Z</time>
      </trkpt>
      <trkpt lat="44.93359" lon="6.82969">
        <ele>1482.2</ele>
        <time>2021-12-23T07:10:45Z</time>
      </trkpt>
      <trkpt lat="44.93363" lon="6.82978">
        <ele>1483.1</ele>
        <time>2021-12-23T07:10:47Z</time>
      </trkpt>
      <trkpt lat="44.93368" lon="6.82975">
        <ele>1481.9</ele>
        <time>2021-12-23T07:10:50Z</time>
      </trkpt>
      <trkpt lat="44.93369" lon="6.82963">
        <ele>1481.7</ele>
        <time>2021-12-23T07:10:52Z</time>
      </trkpt>
      <trkpt lat="44.93368" lon="6.82955">
        <ele>1481.8</ele>
        <time>2021-12-23T07:10:53Z</time>
      </trkpt>
      <trkpt lat="44.93366" lon="6.82945">
        <ele>1482.1</ele>
        <time>2021-12-23T07:10:54Z</time>
      </trkpt>
      <trkpt lat="44.93364" lon="6.82935">
        <ele>1482.5</ele>
        <time>2021-12-23T07:10:55Z</time>
      </trkpt>
      <trkpt lat="44.93361" lon="6.82924">
        <ele>1482.7</ele>
        <time>2021-12-23T07:10:56Z</time>
      </trkpt>
      <trkpt lat="44.93358" lon="6.82913">
        <ele>1483</ele>
        <time>2021-12-23T07:10:57Z</time>
      </trkpt>
      <trkpt lat="44.93356" lon="6.82902">
        <ele>1482.8</ele>
        <time>2021-12-23T07:10:58Z</time>
      </trkpt>
      <trkpt lat="44.93353" lon="6.8289">
        <ele>1482.8</ele>
        <time>2021-12-23T07:10:59Z</time>
      </trkpt>
      <trkpt lat="44.93353" lon="6.82878">
        <ele>1482.5</ele>
        <time>2021-12-23T07:11:00Z</time>
      </trkpt>
      <trkpt lat="44.93351" lon="6.82865">
        <ele>1482.5</ele>
        <time>2021-12-23T07:11:01Z</time>
      </trkpt>
      <trkpt lat="44.93351" lon="6.82852">
        <ele>1482.3</ele>
        <time>2021-12-23T07:11:02Z</time>
      </trkpt>
      <trkpt lat="44.93351" lon="6.82839">
        <ele>1482.1</ele>
        <time>2021-12-23T07:11:03Z</time>
      </trkpt>
      <trkpt lat="44.93352" lon="6.82826">
        <ele>1482</ele>
        <time>2021-12-23T07:11:04Z</time>
      </trkpt>
      <trkpt lat="44.93351" lon="6.82814">
        <ele>1481.7</ele>
        <time>2021-12-23T07:11:05Z</time>
      </trkpt>
      <trkpt lat="44.9335" lon="6.828">
        <ele>1481.2</ele>
        <time>2021-12-23T07:11:06Z</time>
      </trkpt>
      <trkpt lat="44.93349" lon="6.82786">
        <ele>1480.6</ele>
        <time>2021-12-23T07:11:07Z</time>
      </trkpt>
      <trkpt lat="44.93348" lon="6.82768">
        <ele>1479</ele>
        <time>2021-12-23T07:11:08Z</time>
      </trkpt>
      <trkpt lat="44.93347" lon="6.82749">
        <ele>1476.5</ele>
        <time>2021-12-23T07:11:09Z</time>
      </trkpt>
      <trkpt lat="44.93344" lon="6.82732">
        <ele>1476.7</ele>
        <time>2021-12-23T07:11:10Z</time>
      </trkpt>
      <trkpt lat="44.93341" lon="6.82716">
        <ele>1475.3</ele>
        <time>2021-12-23T07:11:11Z</time>
      </trkpt>
      <trkpt lat="44.93339" lon="6.82702">
        <ele>1474.7</ele>
        <time>2021-12-23T07:11:12Z</time>
      </trkpt>
      <trkpt lat="44.93337" lon="6.82687">
        <ele>1473.5</ele>
        <time>2021-12-23T07:11:13Z</time>
      </trkpt>
      <trkpt lat="44.93335" lon="6.82674">
        <ele>1471.7</ele>
        <time>2021-12-23T07:11:14Z</time>
      </trkpt>
      <trkpt lat="44.93332" lon="6.82662">
        <ele>1470.2</ele>
        <time>2021-12-23T07:11:15Z</time>
      </trkpt>
      <trkpt lat="44.9333" lon="6.82648">
        <ele>1469.7</ele>
        <time>2021-12-23T07:11:16Z</time>
      </trkpt>
      <trkpt lat="44.93325" lon="6.82635">
        <ele>1469.1</ele>
        <time>2021-12-23T07:11:17Z</time>
      </trkpt>
      <trkpt lat="44.93319" lon="6.82624">
        <ele>1468.6</ele>
        <time>2021-12-23T07:11:18Z</time>
      </trkpt>
      <trkpt lat="44.93313" lon="6.82609">
        <ele>1466.9</ele>
        <time>2021-12-23T07:11:19Z</time>
      </trkpt>
      <trkpt lat="44.93311" lon="6.82599">
        <ele>1466.6</ele>
        <time>2021-12-23T07:11:20Z</time>
      </trkpt>
      <trkpt lat="44.93308" lon="6.82587">
        <ele>1466.8</ele>
        <time>2021-12-23T07:11:21Z</time>
      </trkpt>
      <trkpt lat="44.93306" lon="6.82572">
        <ele>1466.7</ele>
        <time>2021-12-23T07:11:22Z</time>
      </trkpt>
      <trkpt lat="44.93306" lon="6.82559">
        <ele>1463.7</ele>
        <time>2021-12-23T07:11:23Z</time>
      </trkpt>
      <trkpt lat="44.93307" lon="6.82547">
        <ele>1461.8</ele>
        <time>2021-12-23T07:11:24Z</time>
      </trkpt>
      <trkpt lat="44.93308" lon="6.8253">
        <ele>1457.1</ele>
        <time>2021-12-23T07:11:25Z</time>
      </trkpt>
      <trkpt lat="44.93308" lon="6.82518">
        <ele>1456.5</ele>
        <time>2021-12-23T07:11:26Z</time>
      </trkpt>
      <trkpt lat="44.93306" lon="6.82504">
        <ele>1455.2</ele>
        <time>2021-12-23T07:11:27Z</time>
      </trkpt>
      <trkpt lat="44.93304" lon="6.82488">
        <ele>1452.8</ele>
        <time>2021-12-23T07:11:28Z</time>
      </trkpt>
      <trkpt lat="44.933" lon="6.82477">
        <ele>1453.9</ele>
        <time>2021-12-23T07:11:29Z</time>
      </trkpt>
      <trkpt lat="44.933" lon="6.82463">
        <ele>1454.2</ele>
        <time>2021-12-23T07:11:30Z</time>
      </trkpt>
      <trkpt lat="44.93298" lon="6.8245">
        <ele>1454.2</ele>
        <time>2021-12-23T07:11:31Z</time>
      </trkpt>
      <trkpt lat="44.933" lon="6.82434">
        <ele>1452.7</ele>
        <time>2021-12-23T07:11:32Z</time>
      </trkpt>
      <trkpt lat="44.933" lon="6.8242">
        <ele>1449.6</ele>
        <time>2021-12-23T07:11:33Z</time>
      </trkpt>
      <trkpt lat="44.93303" lon="6.82405">
        <ele>1445</ele>
        <time>2021-12-23T07:11:34Z</time>
      </trkpt>
      <trkpt lat="44.93305" lon="6.82393">
        <ele>1442.7</ele>
        <time>2021-12-23T07:11:35Z</time>
      </trkpt>
      <trkpt lat="44.93307" lon="6.82382">
        <ele>1439.9</ele>
        <time>2021-12-23T07:11:36Z</time>
      </trkpt>
      <trkpt lat="44.9331" lon="6.82372">
        <ele>1438.2</ele>
        <time>2021-12-23T07:11:37Z</time>
      </trkpt>
      <trkpt lat="44.93313" lon="6.82363">
        <ele>1436.2</ele>
        <time>2021-12-23T07:11:38Z</time>
      </trkpt>
      <trkpt lat="44.93315" lon="6.82354">
        <ele>1434.8</ele>
        <time>2021-12-23T07:11:39Z</time>
      </trkpt>
      <trkpt lat="44.93318" lon="6.82347">
        <ele>1433.6</ele>
        <time>2021-12-23T07:11:40Z</time>
      </trkpt>
      <trkpt lat="44.93322" lon="6.8234">
        <ele>1430.8</ele>
        <time>2021-12-23T07:11:42Z</time>
      </trkpt>
      <trkpt lat="44.93327" lon="6.82338">
        <ele>1429.8</ele>
        <time>2021-12-23T07:11:45Z</time>
      </trkpt>
      <trkpt lat="44.93329" lon="6.82329">
        <ele>1425.8</ele>
        <time>2021-12-23T07:11:48Z</time>
      </trkpt>
      <trkpt lat="44.93328" lon="6.82317">
        <ele>1423.6</ele>
        <time>2021-12-23T07:11:50Z</time>
      </trkpt>
      <trkpt lat="44.93328" lon="6.8231">
        <ele>1422.7</ele>
        <time>2021-12-23T07:11:51Z</time>
      </trkpt>
      <trkpt lat="44.93327" lon="6.82301">
        <ele>1422</ele>
        <time>2021-12-23T07:11:52Z</time>
      </trkpt>
      <trkpt lat="44.93327" lon="6.82292">
        <ele>1421.3</ele>
        <time>2021-12-23T07:11:53Z</time>
      </trkpt>
      <trkpt lat="44.93327" lon="6.82283">
        <ele>1421.2</ele>
        <time>2021-12-23T07:11:54Z</time>
      </trkpt>
      <trkpt lat="44.93327" lon="6.82272">
        <ele>1421</ele>
        <time>2021-12-23T07:11:55Z</time>
      </trkpt>
      <trkpt lat="44.93327" lon="6.8226">
        <ele>1421.2</ele>
        <time>2021-12-23T07:11:56Z</time>
      </trkpt>
      <trkpt lat="44.93326" lon="6.82247">
        <ele>1422.3</ele>
        <time>2021-12-23T07:11:57Z</time>
      </trkpt>
      <trkpt lat="44.93326" lon="6.82234">
        <ele>1423.3</ele>
        <time>2021-12-23T07:11:58Z</time>
      </trkpt>
      <trkpt lat="44.93326" lon="6.82219">
        <ele>1422.8</ele>
        <time>2021-12-23T07:11:59Z</time>
      </trkpt>
      <trkpt lat="44.93327" lon="6.82205">
        <ele>1423</ele>
        <time>2021-12-23T07:12:00Z</time>
      </trkpt>
      <trkpt lat="44.93326" lon="6.82192">
        <ele>1425.4</ele>
        <time>2021-12-23T07:12:01Z</time>
      </trkpt>
      <trkpt lat="44.93324" lon="6.82179">
        <ele>1425.4</ele>
        <time>2021-12-23T07:12:02Z</time>
      </trkpt>
      <trkpt lat="44.93323" lon="6.82166">
        <ele>1425.4</ele>
        <time>2021-12-23T07:12:03Z</time>
      </trkpt>
      <trkpt lat="44.93322" lon="6.82154">
        <ele>1425.1</ele>
        <time>2021-12-23T07:12:04Z</time>
      </trkpt>
      <trkpt lat="44.93322" lon="6.82141">
        <ele>1424.2</ele>
        <time>2021-12-23T07:12:05Z</time>
      </trkpt>
      <trkpt lat="44.93322" lon="6.8213">
        <ele>1424.4</ele>
        <time>2021-12-23T07:12:06Z</time>
      </trkpt>
      <trkpt lat="44.93322" lon="6.82119">
        <ele>1425.8</ele>
        <time>2021-12-23T07:12:07Z</time>
      </trkpt>
      <trkpt lat="44.93321" lon="6.82108">
        <ele>1426.7</ele>
        <time>2021-12-23T07:12:08Z</time>
      </trkpt>
      <trkpt lat="44.93322" lon="6.82098">
        <ele>1428.2</ele>
        <time>2021-12-23T07:12:09Z</time>
      </trkpt>
      <trkpt lat="44.93322" lon="6.82089">
        <ele>1428.8</ele>
        <time>2021-12-23T07:12:10Z</time>
      </trkpt>
      <trkpt lat="44.93322" lon="6.82081">
        <ele>1429.3</ele>
        <time>2021-12-23T07:12:11Z</time>
      </trkpt>
      <trkpt lat="44.93321" lon="6.82073">
        <ele>1429.5</ele>
        <time>2021-12-23T07:12:12Z</time>
      </trkpt>
      <trkpt lat="44.93321" lon="6.82067">
        <ele>1430.3</ele>
        <time>2021-12-23T07:12:13Z</time>
      </trkpt>
      <trkpt lat="44.93321" lon="6.82056">
        <ele>1431.4</ele>
        <time>2021-12-23T07:12:15Z</time>
      </trkpt>
      <trkpt lat="44.93318" lon="6.82048">
        <ele>1435</ele>
        <time>2021-12-23T07:12:17Z</time>
      </trkpt>
      <trkpt lat="44.93313" lon="6.82047">
        <ele>1437.4</ele>
        <time>2021-12-23T07:12:19Z</time>
      </trkpt>
      <trkpt lat="44.93306" lon="6.82048">
        <ele>1439.7</ele>
        <time>2021-12-23T07:12:21Z</time>
      </trkpt>
      <trkpt lat="44.93298" lon="6.82049">
        <ele>1439.9</ele>
        <time>2021-12-23T07:12:23Z</time>
      </trkpt>
      <trkpt lat="44.9329" lon="6.82049">
        <ele>1437.9</ele>
        <time>2021-12-23T07:12:25Z</time>
      </trkpt>
      <trkpt lat="44.93282" lon="6.82049">
        <ele>1436.6</ele>
        <time>2021-12-23T07:12:27Z</time>
      </trkpt>
      <trkpt lat="44.93274" lon="6.82049">
        <ele>1435.4</ele>
        <time>2021-12-23T07:12:29Z</time>
      </trkpt>
      <trkpt lat="44.9327" lon="6.82048">
        <ele>1435.3</ele>
        <time>2021-12-23T07:12:30Z</time>
      </trkpt>
      <trkpt lat="44.93265" lon="6.82048">
        <ele>1435.5</ele>
        <time>2021-12-23T07:12:31Z</time>
      </trkpt>
      <trkpt lat="44.93257" lon="6.82048">
        <ele>1436.2</ele>
        <time>2021-12-23T07:12:33Z</time>
      </trkpt>
      <trkpt lat="44.93251" lon="6.8205">
        <ele>1436.7</ele>
        <time>2021-12-23T07:12:35Z</time>
      </trkpt>
      <trkpt lat="44.93247" lon="6.82054">
        <ele>1435.8</ele>
        <time>2021-12-23T07:12:37Z</time>
      </trkpt>
      <trkpt lat="44.93247" lon="6.82055">
        <ele>1435.4</ele>
        <time>2021-12-23T07:12:38Z</time>
      </trkpt>
      <trkpt lat="44.93247" lon="6.82054">
        <ele>1435.4</ele>
        <time>2021-12-23T07:20:05Z</time>
      </trkpt>
      <trkpt lat="44.9324" lon="6.82048">
        <ele>1436.5</ele>
        <time>2021-12-23T07:20:06Z</time>
      </trkpt>
      <trkpt lat="44.93236" lon="6.82046">
        <ele>1436.3</ele>
        <time>2021-12-23T07:20:10Z</time>
      </trkpt>
      <trkpt lat="44.93231" lon="6.82045">
        <ele>1436.5</ele>
        <time>2021-12-23T07:20:15Z</time>
      </trkpt>
      <trkpt lat="44.93225" lon="6.82044">
        <ele>1436.9</ele>
        <time>2021-12-23T07:20:20Z</time>
      </trkpt>
      <trkpt lat="44.9322" lon="6.82043">
        <ele>1437.6</ele>
        <time>2021-12-23T07:20:24Z</time>
      </trkpt>
      <trkpt lat="44.93215" lon="6.82042">
        <ele>1438.1</ele>
        <time>2021-12-23T07:20:28Z</time>
      </trkpt>
      <trkpt lat="44.9321" lon="6.82042">
        <ele>1439.6</ele>
        <time>2021-12-23T07:20:33Z</time>
      </trkpt>
      <trkpt lat="44.93209" lon="6.82042">
        <ele>1440</ele>
        <time>2021-12-23T07:20:34Z</time>
      </trkpt>
      <trkpt lat="44.93208" lon="6.82042">
        <ele>1440.1</ele>
        <time>2021-12-23T07:20:35Z</time>
      </trkpt>
      <trkpt lat="44.93208" lon="6.82042">
        <ele>1440.4</ele>
        <time>2021-12-23T07:20:36Z</time>
      </trkpt>
      <trkpt lat="44.93206" lon="6.82042">
        <ele>1440.6</ele>
        <time>2021-12-23T07:20:37Z</time>
      </trkpt>
      <trkpt lat="44.93201" lon="6.8204">
        <ele>1441.5</ele>
        <time>2021-12-23T07:20:41Z</time>
      </trkpt>
      <trkpt lat="44.932" lon="6.8204">
        <ele>1441.4</ele>
        <time>2021-12-23T07:20:42Z</time>
      </trkpt>
      <trkpt lat="44.93199" lon="6.82039">
        <ele>1441.5</ele>
        <time>2021-12-23T07:20:43Z</time>
      </trkpt>
      <trkpt lat="44.93198" lon="6.82039">
        <ele>1441.6</ele>
        <time>2021-12-23T07:20:44Z</time>
      </trkpt>
      <trkpt lat="44.93197" lon="6.82038">
        <ele>1441.4</ele>
        <time>2021-12-23T07:20:45Z</time>
      </trkpt>
      <trkpt lat="44.93192" lon="6.82038">
        <ele>1441.8</ele>
        <time>2021-12-23T07:20:50Z</time>
      </trkpt>
      <trkpt lat="44.93191" lon="6.82039">
        <ele>1442.1</ele>
        <time>2021-12-23T07:20:51Z</time>
      </trkpt>
      <trkpt lat="44.93191" lon="6.82039">
        <ele>1442.3</ele>
        <time>2021-12-23T07:20:52Z</time>
      </trkpt>
      <trkpt lat="44.9319" lon="6.82038">
        <ele>1442.5</ele>
        <time>2021-12-23T07:20:53Z</time>
      </trkpt>
      <trkpt lat="44.93189" lon="6.82038">
        <ele>1442.7</ele>
        <time>2021-12-23T07:20:54Z</time>
      </trkpt>
      <trkpt lat="44.93187" lon="6.82038">
        <ele>1443.4</ele>
        <time>2021-12-23T07:20:56Z</time>
      </trkpt>
      <trkpt lat="44.93186" lon="6.82038">
        <ele>1443.6</ele>
        <time>2021-12-23T07:20:57Z</time>
      </trkpt>
      <trkpt lat="44.93184" lon="6.82037">
        <ele>1443.8</ele>
        <time>2021-12-23T07:21:00Z</time>
      </trkpt>
      <trkpt lat="44.93182" lon="6.82037">
        <ele>1444</ele>
        <time>2021-12-23T07:21:01Z</time>
      </trkpt>
      <trkpt lat="44.93181" lon="6.82036">
        <ele>1443.9</ele>
        <time>2021-12-23T07:21:02Z</time>
      </trkpt>
      <trkpt lat="44.9318" lon="6.82036">
        <ele>1443.9</ele>
        <time>2021-12-23T07:21:03Z</time>
      </trkpt>
      <trkpt lat="44.93179" lon="6.82035">
        <ele>1443.8</ele>
        <time>2021-12-23T07:21:04Z</time>
      </trkpt>
      <trkpt lat="44.93177" lon="6.82035">
        <ele>1443.6</ele>
        <time>2021-12-23T07:21:06Z</time>
      </trkpt>
      <trkpt lat="44.93176" lon="6.82034">
        <ele>1443.5</ele>
        <time>2021-12-23T07:21:07Z</time>
      </trkpt>
      <trkpt lat="44.93175" lon="6.82034">
        <ele>1443.5</ele>
        <time>2021-12-23T07:21:08Z</time>
      </trkpt>
      <trkpt lat="44.93174" lon="6.82033">
        <ele>1443.6</ele>
        <time>2021-12-23T07:21:09Z</time>
      </trkpt>
      <trkpt lat="44.93169" lon="6.82032">
        <ele>1443.3</ele>
        <time>2021-12-23T07:21:13Z</time>
      </trkpt>
      <trkpt lat="44.93164" lon="6.82031">
        <ele>1443.6</ele>
        <time>2021-12-23T07:21:18Z</time>
      </trkpt>
      <trkpt lat="44.93162" lon="6.82031">
        <ele>1444</ele>
        <time>2021-12-23T07:21:19Z</time>
      </trkpt>
      <trkpt lat="44.93161" lon="6.82031">
        <ele>1444.2</ele>
        <time>2021-12-23T07:21:22Z</time>
      </trkpt>
      <trkpt lat="44.93158" lon="6.8203">
        <ele>1444.5</ele>
        <time>2021-12-23T07:21:23Z</time>
      </trkpt>
      <trkpt lat="44.93157" lon="6.8203">
        <ele>1444.4</ele>
        <time>2021-12-23T07:21:25Z</time>
      </trkpt>
      <trkpt lat="44.93156" lon="6.8203">
        <ele>1444.1</ele>
        <time>2021-12-23T07:21:26Z</time>
      </trkpt>
      <trkpt lat="44.93155" lon="6.82029">
        <ele>1444.3</ele>
        <time>2021-12-23T07:21:41Z</time>
      </trkpt>
      <trkpt lat="44.93146" lon="6.82025">
        <ele>1444.3</ele>
        <time>2021-12-23T07:21:42Z</time>
      </trkpt>
      <trkpt lat="44.93145" lon="6.82025">
        <ele>1444.4</ele>
        <time>2021-12-23T07:21:43Z</time>
      </trkpt>
      <trkpt lat="44.93144" lon="6.82024">
        <ele>1444.5</ele>
        <time>2021-12-23T07:21:56Z</time>
      </trkpt>
      <trkpt lat="44.93135" lon="6.82022">
        <ele>1445.6</ele>
        <time>2021-12-23T07:21:57Z</time>
      </trkpt>
      <trkpt lat="44.93134" lon="6.82022">
        <ele>1445.6</ele>
        <time>2021-12-23T07:21:58Z</time>
      </trkpt>
      <trkpt lat="44.93132" lon="6.82022">
        <ele>1445.7</ele>
        <time>2021-12-23T07:22:31Z</time>
      </trkpt>
      <trkpt lat="44.93142" lon="6.82021">
        <ele>1447</ele>
        <time>2021-12-23T07:22:32Z</time>
      </trkpt>
      <trkpt lat="44.93143" lon="6.82021">
        <ele>1446.9</ele>
        <time>2021-12-23T07:22:33Z</time>
      </trkpt>
      <trkpt lat="44.93144" lon="6.82021">
        <ele>1447</ele>
        <time>2021-12-23T07:22:41Z</time>
      </trkpt>
      <trkpt lat="44.93151" lon="6.82019">
        <ele>1447</ele>
        <time>2021-12-23T07:22:42Z</time>
      </trkpt>
      <trkpt lat="44.93151" lon="6.82019">
        <ele>1446.7</ele>
        <time>2021-12-23T07:22:43Z</time>
      </trkpt>
      <trkpt lat="44.93153" lon="6.82018">
        <ele>1446.8</ele>
        <time>2021-12-23T07:22:58Z</time>
      </trkpt>
      <trkpt lat="44.9316" lon="6.82009">
        <ele>1447.5</ele>
        <time>2021-12-23T07:22:59Z</time>
      </trkpt>
      <trkpt lat="44.9316" lon="6.82008">
        <ele>1447.6</ele>
        <time>2021-12-23T07:23:00Z</time>
      </trkpt>
      <trkpt lat="44.93161" lon="6.82006">
        <ele>1447.7</ele>
        <time>2021-12-23T07:23:14Z</time>
      </trkpt>
      <trkpt lat="44.9316" lon="6.81993">
        <ele>1448.5</ele>
        <time>2021-12-23T07:23:15Z</time>
      </trkpt>
      <trkpt lat="44.9316" lon="6.81992">
        <ele>1448.5</ele>
        <time>2021-12-23T07:23:16Z</time>
      </trkpt>
      <trkpt lat="44.93159" lon="6.8199">
        <ele>1448.6</ele>
        <time>2021-12-23T07:23:21Z</time>
      </trkpt>
      <trkpt lat="44.93158" lon="6.81985">
        <ele>1448.6</ele>
        <time>2021-12-23T07:23:22Z</time>
      </trkpt>
      <trkpt lat="44.93158" lon="6.81983">
        <ele>1448.5</ele>
        <time>2021-12-23T07:23:23Z</time>
      </trkpt>
      <trkpt lat="44.93158" lon="6.81983">
        <ele>1448.4</ele>
        <time>2021-12-23T07:23:24Z</time>
      </trkpt>
      <trkpt lat="44.93157" lon="6.81981">
        <ele>1448.3</ele>
        <time>2021-12-23T07:23:42Z</time>
      </trkpt>
      <trkpt lat="44.9315" lon="6.81972">
        <ele>1447.9</ele>
        <time>2021-12-23T07:23:43Z</time>
      </trkpt>
      <trkpt lat="44.93149" lon="6.81971">
        <ele>1447.9</ele>
        <time>2021-12-23T07:23:44Z</time>
      </trkpt>
      <trkpt lat="44.93149" lon="6.8197">
        <ele>1448</ele>
        <time>2021-12-23T07:23:58Z</time>
      </trkpt>
      <trkpt lat="44.93143" lon="6.81958">
        <ele>1448</ele>
        <time>2021-12-23T07:23:59Z</time>
      </trkpt>
      <trkpt lat="44.93143" lon="6.81958">
        <ele>1448.1</ele>
        <time>2021-12-23T07:24:00Z</time>
      </trkpt>
      <trkpt lat="44.93142" lon="6.81956">
        <ele>1448.2</ele>
        <time>2021-12-23T07:24:15Z</time>
      </trkpt>
      <trkpt lat="44.93135" lon="6.81946">
        <ele>1448.7</ele>
        <time>2021-12-23T07:24:16Z</time>
      </trkpt>
      <trkpt lat="44.93135" lon="6.81946">
        <ele>1448.7</ele>
        <time>2021-12-23T07:24:17Z</time>
      </trkpt>
      <trkpt lat="44.93135" lon="6.81944">
        <ele>1448.7</ele>
        <time>2021-12-23T07:25:00Z</time>
      </trkpt>
      <trkpt lat="44.93128" lon="6.81936">
        <ele>1449.6</ele>
        <time>2021-12-23T07:25:01Z</time>
      </trkpt>
      <trkpt lat="44.93128" lon="6.81935">
        <ele>1449.6</ele>
        <time>2021-12-23T07:25:02Z</time>
      </trkpt>
      <trkpt lat="44.93128" lon="6.81935">
        <ele>1449.8</ele>
        <time>2021-12-23T07:26:04Z</time>
      </trkpt>
      <trkpt lat="44.93125" lon="6.81923">
        <ele>1451.3</ele>
        <time>2021-12-23T07:26:05Z</time>
      </trkpt>
      <trkpt lat="44.93125" lon="6.81922">
        <ele>1451.3</ele>
        <time>2021-12-23T07:26:06Z</time>
      </trkpt>
      <trkpt lat="44.93125" lon="6.81921">
        <ele>1451.3</ele>
        <time>2021-12-23T07:26:21Z</time>
      </trkpt>
      <trkpt lat="44.93122" lon="6.81907">
        <ele>1452.5</ele>
        <time>2021-12-23T07:26:22Z</time>
      </trkpt>
      <trkpt lat="44.93123" lon="6.81905">
        <ele>1452.4</ele>
        <time>2021-12-23T07:26:23Z</time>
      </trkpt>
      <trkpt lat="44.93122" lon="6.81904">
        <ele>1452.5</ele>
        <time>2021-12-23T07:26:41Z</time>
      </trkpt>
      <trkpt lat="44.93118" lon="6.81892">
        <ele>1453.7</ele>
        <time>2021-12-23T07:26:42Z</time>
      </trkpt>
      <trkpt lat="44.93118" lon="6.81892">
        <ele>1453.7</ele>
        <time>2021-12-23T07:26:43Z</time>
      </trkpt>
      <trkpt lat="44.93117" lon="6.8189">
        <ele>1453.8</ele>
        <time>2021-12-23T07:27:14Z</time>
      </trkpt>
      <trkpt lat="44.93114" lon="6.81877">
        <ele>1454.7</ele>
        <time>2021-12-23T07:27:15Z</time>
      </trkpt>
      <trkpt lat="44.93114" lon="6.81877">
        <ele>1454.7</ele>
        <time>2021-12-23T07:27:16Z</time>
      </trkpt>
      <trkpt lat="44.93114" lon="6.81875">
        <ele>1454.6</ele>
        <time>2021-12-23T07:27:32Z</time>
      </trkpt>
      <trkpt lat="44.93116" lon="6.81862">
        <ele>1454.7</ele>
        <time>2021-12-23T07:27:33Z</time>
      </trkpt>
      <trkpt lat="44.93116" lon="6.81861">
        <ele>1454.8</ele>
        <time>2021-12-23T07:27:34Z</time>
      </trkpt>
      <trkpt lat="44.93115" lon="6.8186">
        <ele>1454.6</ele>
        <time>2021-12-23T07:27:54Z</time>
      </trkpt>
      <trkpt lat="44.93115" lon="6.81848">
        <ele>1454.7</ele>
        <time>2021-12-23T07:27:55Z</time>
      </trkpt>
      <trkpt lat="44.93115" lon="6.81847">
        <ele>1454.7</ele>
        <time>2021-12-23T07:27:56Z</time>
      </trkpt>
      <trkpt lat="44.93116" lon="6.81846">
        <ele>1455.1</ele>
        <time>2021-12-23T07:28:16Z</time>
      </trkpt>
      <trkpt lat="44.93119" lon="6.81834">
        <ele>1457.4</ele>
        <time>2021-12-23T07:28:17Z</time>
      </trkpt>
      <trkpt lat="44.9312" lon="6.81833">
        <ele>1457.6</ele>
        <time>2021-12-23T07:28:18Z</time>
      </trkpt>
      <trkpt lat="44.9312" lon="6.81832">
        <ele>1457.9</ele>
        <time>2021-12-23T07:29:22Z</time>
      </trkpt>
      <trkpt lat="44.93112" lon="6.81826">
        <ele>1460.1</ele>
        <time>2021-12-23T07:29:23Z</time>
      </trkpt>
      <trkpt lat="44.93111" lon="6.81826">
        <ele>1460.1</ele>
        <time>2021-12-23T07:29:24Z</time>
      </trkpt>
      <trkpt lat="44.93111" lon="6.81827">
        <ele>1460.2</ele>
        <time>2021-12-23T07:29:57Z</time>
      </trkpt>
      <trkpt lat="44.93109" lon="6.8184">
        <ele>1460.7</ele>
        <time>2021-12-23T07:29:58Z</time>
      </trkpt>
      <trkpt lat="44.93109" lon="6.81841">
        <ele>1460.7</ele>
        <time>2021-12-23T07:29:59Z</time>
      </trkpt>
      <trkpt lat="44.93108" lon="6.81843">
        <ele>1460.8</ele>
        <time>2021-12-23T07:30:02Z</time>
      </trkpt>
      <trkpt lat="44.93107" lon="6.81847">
        <ele>1460.9</ele>
        <time>2021-12-23T07:30:03Z</time>
      </trkpt>
      <trkpt lat="44.93105" lon="6.81851">
        <ele>1461</ele>
        <time>2021-12-23T07:30:05Z</time>
      </trkpt>
      <trkpt lat="44.93104" lon="6.81852">
        <ele>1461</ele>
        <time>2021-12-23T07:30:06Z</time>
      </trkpt>
      <trkpt lat="44.93104" lon="6.81854">
        <ele>1461</ele>
        <time>2021-12-23T07:30:09Z</time>
      </trkpt>
      <trkpt lat="44.93103" lon="6.81857">
        <ele>1460.9</ele>
        <time>2021-12-23T07:30:10Z</time>
      </trkpt>
      <trkpt lat="44.93102" lon="6.81858">
        <ele>1461.1</ele>
        <time>2021-12-23T07:30:11Z</time>
      </trkpt>
      <trkpt lat="44.93102" lon="6.81859">
        <ele>1461</ele>
        <time>2021-12-23T07:30:12Z</time>
      </trkpt>
      <trkpt lat="44.93102" lon="6.81862">
        <ele>1460.9</ele>
        <time>2021-12-23T07:30:14Z</time>
      </trkpt>
      <trkpt lat="44.93102" lon="6.81865">
        <ele>1460.6</ele>
        <time>2021-12-23T07:30:15Z</time>
      </trkpt>
      <trkpt lat="44.93101" lon="6.81867">
        <ele>1460.3</ele>
        <time>2021-12-23T07:30:16Z</time>
      </trkpt>
      <trkpt lat="44.931" lon="6.81869">
        <ele>1460.1</ele>
        <time>2021-12-23T07:30:17Z</time>
      </trkpt>
      <trkpt lat="44.93099" lon="6.81872">
        <ele>1459.7</ele>
        <time>2021-12-23T07:30:24Z</time>
      </trkpt>
      <trkpt lat="44.93095" lon="6.81879">
        <ele>1459.4</ele>
        <time>2021-12-23T07:30:25Z</time>
      </trkpt>
      <trkpt lat="44.93094" lon="6.8188">
        <ele>1459.3</ele>
        <time>2021-12-23T07:30:26Z</time>
      </trkpt>
      <trkpt lat="44.93093" lon="6.81881">
        <ele>1459.3</ele>
        <time>2021-12-23T07:30:33Z</time>
      </trkpt>
      <trkpt lat="44.93089" lon="6.81887">
        <ele>1458.9</ele>
        <time>2021-12-23T07:30:34Z</time>
      </trkpt>
      <trkpt lat="44.93088" lon="6.81888">
        <ele>1458.8</ele>
        <time>2021-12-23T07:30:35Z</time>
      </trkpt>
      <trkpt lat="44.93087" lon="6.8189">
        <ele>1458.8</ele>
        <time>2021-12-23T07:30:46Z</time>
      </trkpt>
      <trkpt lat="44.9308" lon="6.81899">
        <ele>1458.6</ele>
        <time>2021-12-23T07:30:47Z</time>
      </trkpt>
      <trkpt lat="44.9308" lon="6.819">
        <ele>1458.6</ele>
        <time>2021-12-23T07:30:48Z</time>
      </trkpt>
      <trkpt lat="44.93079" lon="6.81902">
        <ele>1458.6</ele>
        <time>2021-12-23T07:31:01Z</time>
      </trkpt>
      <trkpt lat="44.93072" lon="6.8191">
        <ele>1458.3</ele>
        <time>2021-12-23T07:31:02Z</time>
      </trkpt>
      <trkpt lat="44.93071" lon="6.8191">
        <ele>1458.3</ele>
        <time>2021-12-23T07:31:03Z</time>
      </trkpt>
      <trkpt lat="44.9307" lon="6.8191">
        <ele>1458.5</ele>
        <time>2021-12-23T07:31:17Z</time>
      </trkpt>
      <trkpt lat="44.93063" lon="6.81901">
        <ele>1459.1</ele>
        <time>2021-12-23T07:31:18Z</time>
      </trkpt>
      <trkpt lat="44.93063" lon="6.819">
        <ele>1459.2</ele>
        <time>2021-12-23T07:31:19Z</time>
      </trkpt>
      <trkpt lat="44.93063" lon="6.81899">
        <ele>1459.3</ele>
        <time>2021-12-23T07:31:33Z</time>
      </trkpt>
      <trkpt lat="44.93065" lon="6.81887">
        <ele>1460.6</ele>
        <time>2021-12-23T07:31:34Z</time>
      </trkpt>
      <trkpt lat="44.93065" lon="6.81886">
        <ele>1460.7</ele>
        <time>2021-12-23T07:31:35Z</time>
      </trkpt>
      <trkpt lat="44.93065" lon="6.81885">
        <ele>1461</ele>
        <time>2021-12-23T07:31:48Z</time>
      </trkpt>
      <trkpt lat="44.93069" lon="6.81872">
        <ele>1462.3</ele>
        <time>2021-12-23T07:31:49Z</time>
      </trkpt>
      <trkpt lat="44.93069" lon="6.81871">
        <ele>1462.4</ele>
        <time>2021-12-23T07:31:50Z</time>
      </trkpt>
      <trkpt lat="44.93069" lon="6.81869">
        <ele>1462.6</ele>
        <time>2021-12-23T07:32:07Z</time>
      </trkpt>
      <trkpt lat="44.93072" lon="6.81856">
        <ele>1465.1</ele>
        <time>2021-12-23T07:32:08Z</time>
      </trkpt>
      <trkpt lat="44.93072" lon="6.81855">
        <ele>1465.1</ele>
        <time>2021-12-23T07:32:09Z</time>
      </trkpt>
      <trkpt lat="44.93072" lon="6.81854">
        <ele>1465.3</ele>
        <time>2021-12-23T07:32:27Z</time>
      </trkpt>
      <trkpt lat="44.93075" lon="6.81842">
        <ele>1467.1</ele>
        <time>2021-12-23T07:32:28Z</time>
      </trkpt>
      <trkpt lat="44.93075" lon="6.81841">
        <ele>1467.2</ele>
        <time>2021-12-23T07:32:29Z</time>
      </trkpt>
      <trkpt lat="44.93076" lon="6.81839">
        <ele>1467.4</ele>
        <time>2021-12-23T07:32:45Z</time>
      </trkpt>
      <trkpt lat="44.9308" lon="6.81828">
        <ele>1469.2</ele>
        <time>2021-12-23T07:32:46Z</time>
      </trkpt>
      <trkpt lat="44.9308" lon="6.81827">
        <ele>1469.2</ele>
        <time>2021-12-23T07:32:47Z</time>
      </trkpt>
      <trkpt lat="44.93081" lon="6.81825">
        <ele>1469.4</ele>
        <time>2021-12-23T07:34:14Z</time>
      </trkpt>
      <trkpt lat="44.93086" lon="6.81814">
        <ele>1471.9</ele>
        <time>2021-12-23T07:34:15Z</time>
      </trkpt>
      <trkpt lat="44.93085" lon="6.81814">
        <ele>1472</ele>
        <time>2021-12-23T07:34:16Z</time>
      </trkpt>
      <trkpt lat="44.93085" lon="6.81813">
        <ele>1472.3</ele>
        <time>2021-12-23T07:34:38Z</time>
      </trkpt>
      <trkpt lat="44.93089" lon="6.81802">
        <ele>1471.3</ele>
        <time>2021-12-23T07:34:39Z</time>
      </trkpt>
      <trkpt lat="44.9309" lon="6.81801">
        <ele>1471.2</ele>
        <time>2021-12-23T07:34:40Z</time>
      </trkpt>
      <trkpt lat="44.93091" lon="6.81799">
        <ele>1471.1</ele>
        <time>2021-12-23T07:34:57Z</time>
      </trkpt>
      <trkpt lat="44.93094" lon="6.81787">
        <ele>1470.4</ele>
        <time>2021-12-23T07:34:58Z</time>
      </trkpt>
      <trkpt lat="44.93095" lon="6.81787">
        <ele>1470.4</ele>
        <time>2021-12-23T07:34:59Z</time>
      </trkpt>
      <trkpt lat="44.93095" lon="6.81785">
        <ele>1470.3</ele>
        <time>2021-12-23T07:35:17Z</time>
      </trkpt>
      <trkpt lat="44.93102" lon="6.81776">
        <ele>1471.1</ele>
        <time>2021-12-23T07:35:18Z</time>
      </trkpt>
      <trkpt lat="44.93102" lon="6.81775">
        <ele>1471.2</ele>
        <time>2021-12-23T07:35:19Z</time>
      </trkpt>
      <trkpt lat="44.93103" lon="6.81774">
        <ele>1471.3</ele>
        <time>2021-12-23T07:35:42Z</time>
      </trkpt>
      <trkpt lat="44.93107" lon="6.81763">
        <ele>1475.5</ele>
        <time>2021-12-23T07:35:43Z</time>
      </trkpt>
      <trkpt lat="44.93107" lon="6.81762">
        <ele>1475.8</ele>
        <time>2021-12-23T07:35:44Z</time>
      </trkpt>
      <trkpt lat="44.93107" lon="6.81761">
        <ele>1476.5</ele>
        <time>2021-12-23T07:36:05Z</time>
      </trkpt>
      <trkpt lat="44.93109" lon="6.81749">
        <ele>1481.4</ele>
        <time>2021-12-23T07:36:06Z</time>
      </trkpt>
      <trkpt lat="44.93109" lon="6.81748">
        <ele>1481.7</ele>
        <time>2021-12-23T07:36:07Z</time>
      </trkpt>
      <trkpt lat="44.9311" lon="6.81747">
        <ele>1482.1</ele>
        <time>2021-12-23T07:36:28Z</time>
      </trkpt>
      <trkpt lat="44.93113" lon="6.81734">
        <ele>1485.2</ele>
        <time>2021-12-23T07:36:29Z</time>
      </trkpt>
      <trkpt lat="44.93113" lon="6.81733">
        <ele>1485.6</ele>
        <time>2021-12-23T07:36:30Z</time>
      </trkpt>
      <trkpt lat="44.93113" lon="6.81731">
        <ele>1486.5</ele>
        <time>2021-12-23T07:36:49Z</time>
      </trkpt>
      <trkpt lat="44.93109" lon="6.81719">
        <ele>1490.8</ele>
        <time>2021-12-23T07:36:50Z</time>
      </trkpt>
      <trkpt lat="44.93109" lon="6.81719">
        <ele>1491</ele>
        <time>2021-12-23T07:36:51Z</time>
      </trkpt>
      <trkpt lat="44.93108" lon="6.81718">
        <ele>1491.2</ele>
        <time>2021-12-23T07:37:23Z</time>
      </trkpt>
      <trkpt lat="44.931" lon="6.81713">
        <ele>1493.7</ele>
        <time>2021-12-23T07:37:24Z</time>
      </trkpt>
      <trkpt lat="44.93099" lon="6.81712">
        <ele>1494</ele>
        <time>2021-12-23T07:37:25Z</time>
      </trkpt>
      <trkpt lat="44.93098" lon="6.81712">
        <ele>1494.5</ele>
        <time>2021-12-23T07:37:40Z</time>
      </trkpt>
      <trkpt lat="44.93089" lon="6.81708">
        <ele>1497.4</ele>
        <time>2021-12-23T07:37:41Z</time>
      </trkpt>
      <trkpt lat="44.93089" lon="6.81708">
        <ele>1497.4</ele>
        <time>2021-12-23T07:37:42Z</time>
      </trkpt>
      <trkpt lat="44.93087" lon="6.81708">
        <ele>1497.5</ele>
        <time>2021-12-23T07:37:56Z</time>
      </trkpt>
      <trkpt lat="44.93078" lon="6.81705">
        <ele>1498.1</ele>
        <time>2021-12-23T07:37:57Z</time>
      </trkpt>
      <trkpt lat="44.93077" lon="6.81705">
        <ele>1498.1</ele>
        <time>2021-12-23T07:37:58Z</time>
      </trkpt>
      <trkpt lat="44.93077" lon="6.81705">
        <ele>1498.1</ele>
        <time>2021-12-23T07:38:25Z</time>
      </trkpt>
      <trkpt lat="44.93068" lon="6.81702">
        <ele>1502</ele>
        <time>2021-12-23T07:38:26Z</time>
      </trkpt>
      <trkpt lat="44.93067" lon="6.81702">
        <ele>1502.4</ele>
        <time>2021-12-23T07:38:27Z</time>
      </trkpt>
      <trkpt lat="44.93066" lon="6.81702">
        <ele>1503.2</ele>
        <time>2021-12-23T07:38:46Z</time>
      </trkpt>
      <trkpt lat="44.93056" lon="6.81701">
        <ele>1508.5</ele>
        <time>2021-12-23T07:38:47Z</time>
      </trkpt>
      <trkpt lat="44.93056" lon="6.81701">
        <ele>1508.7</ele>
        <time>2021-12-23T07:38:48Z</time>
      </trkpt>
      <trkpt lat="44.93054" lon="6.817">
        <ele>1509.2</ele>
        <time>2021-12-23T07:39:02Z</time>
      </trkpt>
      <trkpt lat="44.93045" lon="6.817">
        <ele>1512.4</ele>
        <time>2021-12-23T07:39:03Z</time>
      </trkpt>
      <trkpt lat="44.93044" lon="6.817">
        <ele>1512.6</ele>
        <time>2021-12-23T07:39:04Z</time>
      </trkpt>
      <trkpt lat="44.93042" lon="6.817">
        <ele>1512.9</ele>
        <time>2021-12-23T07:39:23Z</time>
      </trkpt>
      <trkpt lat="44.93033" lon="6.817">
        <ele>1515.5</ele>
        <time>2021-12-23T07:39:24Z</time>
      </trkpt>
      <trkpt lat="44.93033" lon="6.81699">
        <ele>1515.5</ele>
        <time>2021-12-23T07:39:25Z</time>
      </trkpt>
      <trkpt lat="44.93032" lon="6.81699">
        <ele>1515.6</ele>
        <time>2021-12-23T07:39:44Z</time>
      </trkpt>
      <trkpt lat="44.93023" lon="6.81696">
        <ele>1518.7</ele>
        <time>2021-12-23T07:39:45Z</time>
      </trkpt>
      <trkpt lat="44.93022" lon="6.81696">
        <ele>1518.6</ele>
        <time>2021-12-23T07:39:46Z</time>
      </trkpt>
      <trkpt lat="44.93021" lon="6.81696">
        <ele>1519</ele>
        <time>2021-12-23T07:40:04Z</time>
      </trkpt>
      <trkpt lat="44.93012" lon="6.81693">
        <ele>1523.8</ele>
        <time>2021-12-23T07:40:05Z</time>
      </trkpt>
      <trkpt lat="44.93012" lon="6.81693">
        <ele>1524</ele>
        <time>2021-12-23T07:40:06Z</time>
      </trkpt>
      <trkpt lat="44.93011" lon="6.81693">
        <ele>1524.6</ele>
        <time>2021-12-23T07:40:22Z</time>
      </trkpt>
      <trkpt lat="44.93002" lon="6.81691">
        <ele>1527.6</ele>
        <time>2021-12-23T07:40:23Z</time>
      </trkpt>
      <trkpt lat="44.93001" lon="6.8169">
        <ele>1527.8</ele>
        <time>2021-12-23T07:40:24Z</time>
      </trkpt>
      <trkpt lat="44.93" lon="6.8169">
        <ele>1528</ele>
        <time>2021-12-23T07:40:43Z</time>
      </trkpt>
      <trkpt lat="44.92991" lon="6.81687">
        <ele>1528.7</ele>
        <time>2021-12-23T07:40:44Z</time>
      </trkpt>
      <trkpt lat="44.9299" lon="6.81687">
        <ele>1528.7</ele>
        <time>2021-12-23T07:40:45Z</time>
      </trkpt>
      <trkpt lat="44.92989" lon="6.81686">
        <ele>1528.5</ele>
        <time>2021-12-23T07:41:00Z</time>
      </trkpt>
      <trkpt lat="44.9298" lon="6.81683">
        <ele>1528.3</ele>
        <time>2021-12-23T07:41:01Z</time>
      </trkpt>
      <trkpt lat="44.9298" lon="6.81683">
        <ele>1528.3</ele>
        <time>2021-12-23T07:41:02Z</time>
      </trkpt>
      <trkpt lat="44.92978" lon="6.81682">
        <ele>1528.3</ele>
        <time>2021-12-23T07:41:22Z</time>
      </trkpt>
      <trkpt lat="44.92969" lon="6.81676">
        <ele>1529.3</ele>
        <time>2021-12-23T07:41:23Z</time>
      </trkpt>
      <trkpt lat="44.92969" lon="6.81676">
        <ele>1529.6</ele>
        <time>2021-12-23T07:41:24Z</time>
      </trkpt>
      <trkpt lat="44.92967" lon="6.81675">
        <ele>1530.3</ele>
        <time>2021-12-23T07:41:41Z</time>
      </trkpt>
      <trkpt lat="44.92958" lon="6.81673">
        <ele>1533</ele>
        <time>2021-12-23T07:41:42Z</time>
      </trkpt>
      <trkpt lat="44.92958" lon="6.81674">
        <ele>1533.1</ele>
        <time>2021-12-23T07:41:43Z</time>
      </trkpt>
      <trkpt lat="44.92956" lon="6.81673">
        <ele>1533.2</ele>
        <time>2021-12-23T07:41:58Z</time>
      </trkpt>
      <trkpt lat="44.92947" lon="6.81669">
        <ele>1531.4</ele>
        <time>2021-12-23T07:41:59Z</time>
      </trkpt>
      <trkpt lat="44.92947" lon="6.81668">
        <ele>1531.2</ele>
        <time>2021-12-23T07:42:00Z</time>
      </trkpt>
      <trkpt lat="44.92945" lon="6.81667">
        <ele>1530.9</ele>
        <time>2021-12-23T07:42:17Z</time>
      </trkpt>
      <trkpt lat="44.92936" lon="6.81663">
        <ele>1529.3</ele>
        <time>2021-12-23T07:42:18Z</time>
      </trkpt>
      <trkpt lat="44.92935" lon="6.81662">
        <ele>1529.2</ele>
        <time>2021-12-23T07:42:19Z</time>
      </trkpt>
      <trkpt lat="44.92934" lon="6.81662">
        <ele>1529.3</ele>
        <time>2021-12-23T07:42:36Z</time>
      </trkpt>
      <trkpt lat="44.92926" lon="6.81654">
        <ele>1529.9</ele>
        <time>2021-12-23T07:42:37Z</time>
      </trkpt>
      <trkpt lat="44.92926" lon="6.81653">
        <ele>1530</ele>
        <time>2021-12-23T07:42:38Z</time>
      </trkpt>
      <trkpt lat="44.92924" lon="6.81652">
        <ele>1530.2</ele>
        <time>2021-12-23T07:44:12Z</time>
      </trkpt>
      <trkpt lat="44.92916" lon="6.81645">
        <ele>1533.6</ele>
        <time>2021-12-23T07:44:13Z</time>
      </trkpt>
      <trkpt lat="44.92916" lon="6.81644">
        <ele>1533.8</ele>
        <time>2021-12-23T07:44:14Z</time>
      </trkpt>
      <trkpt lat="44.92914" lon="6.81643">
        <ele>1534.2</ele>
        <time>2021-12-23T07:44:25Z</time>
      </trkpt>
      <trkpt lat="44.92906" lon="6.81637">
        <ele>1536</ele>
        <time>2021-12-23T07:44:26Z</time>
      </trkpt>
      <trkpt lat="44.92906" lon="6.81636">
        <ele>1536.2</ele>
        <time>2021-12-23T07:44:27Z</time>
      </trkpt>
      <trkpt lat="44.92904" lon="6.81635">
        <ele>1536.5</ele>
        <time>2021-12-23T07:44:48Z</time>
      </trkpt>
      <trkpt lat="44.92896" lon="6.81629">
        <ele>1537.5</ele>
        <time>2021-12-23T07:44:49Z</time>
      </trkpt>
      <trkpt lat="44.92895" lon="6.81628">
        <ele>1537.5</ele>
        <time>2021-12-23T07:44:50Z</time>
      </trkpt>
      <trkpt lat="44.92894" lon="6.81628">
        <ele>1537.6</ele>
        <time>2021-12-23T07:45:04Z</time>
      </trkpt>
      <trkpt lat="44.92885" lon="6.81622">
        <ele>1537.8</ele>
        <time>2021-12-23T07:45:05Z</time>
      </trkpt>
      <trkpt lat="44.92885" lon="6.81621">
        <ele>1537.9</ele>
        <time>2021-12-23T07:45:06Z</time>
      </trkpt>
      <trkpt lat="44.92883" lon="6.8162">
        <ele>1537.9</ele>
        <time>2021-12-23T07:45:17Z</time>
      </trkpt>
      <trkpt lat="44.92875" lon="6.81613">
        <ele>1538.4</ele>
        <time>2021-12-23T07:45:18Z</time>
      </trkpt>
      <trkpt lat="44.92875" lon="6.81612">
        <ele>1538.5</ele>
        <time>2021-12-23T07:45:19Z</time>
      </trkpt>
      <trkpt lat="44.92873" lon="6.81611">
        <ele>1538.6</ele>
        <time>2021-12-23T07:45:32Z</time>
      </trkpt>
      <trkpt lat="44.92865" lon="6.81603">
        <ele>1539.4</ele>
        <time>2021-12-23T07:45:33Z</time>
      </trkpt>
      <trkpt lat="44.92864" lon="6.81602">
        <ele>1539.4</ele>
        <time>2021-12-23T07:45:34Z</time>
      </trkpt>
      <trkpt lat="44.92863" lon="6.81601">
        <ele>1539.5</ele>
        <time>2021-12-23T07:45:47Z</time>
      </trkpt>
      <trkpt lat="44.92855" lon="6.81592">
        <ele>1540.7</ele>
        <time>2021-12-23T07:45:48Z</time>
      </trkpt>
      <trkpt lat="44.92854" lon="6.81591">
        <ele>1540.9</ele>
        <time>2021-12-23T07:45:49Z</time>
      </trkpt>
      <trkpt lat="44.92853" lon="6.8159">
        <ele>1541.1</ele>
        <time>2021-12-23T07:46:02Z</time>
      </trkpt>
      <trkpt lat="44.92846" lon="6.81583">
        <ele>1542.2</ele>
        <time>2021-12-23T07:46:03Z</time>
      </trkpt>
      <trkpt lat="44.92845" lon="6.81582">
        <ele>1542.3</ele>
        <time>2021-12-23T07:46:04Z</time>
      </trkpt>
      <trkpt lat="44.92844" lon="6.81582">
        <ele>1542.5</ele>
        <time>2021-12-23T07:46:18Z</time>
      </trkpt>
      <trkpt lat="44.92837" lon="6.81574">
        <ele>1544.1</ele>
        <time>2021-12-23T07:46:19Z</time>
      </trkpt>
      <trkpt lat="44.92836" lon="6.81573">
        <ele>1544.2</ele>
        <time>2021-12-23T07:46:20Z</time>
      </trkpt>
      <trkpt lat="44.92835" lon="6.81571">
        <ele>1544.5</ele>
        <time>2021-12-23T07:46:38Z</time>
      </trkpt>
      <trkpt lat="44.92829" lon="6.81561">
        <ele>1547.8</ele>
        <time>2021-12-23T07:46:39Z</time>
      </trkpt>
      <trkpt lat="44.92829" lon="6.8156">
        <ele>1548.3</ele>
        <time>2021-12-23T07:46:40Z</time>
      </trkpt>
      <trkpt lat="44.92828" lon="6.81559">
        <ele>1549.2</ele>
        <time>2021-12-23T07:46:56Z</time>
      </trkpt>
      <trkpt lat="44.92821" lon="6.81551">
        <ele>1553.4</ele>
        <time>2021-12-23T07:46:57Z</time>
      </trkpt>
      <trkpt lat="44.92821" lon="6.81551">
        <ele>1553.7</ele>
        <time>2021-12-23T07:46:58Z</time>
      </trkpt>
      <trkpt lat="44.9282" lon="6.8155">
        <ele>1554.2</ele>
        <time>2021-12-23T07:47:15Z</time>
      </trkpt>
      <trkpt lat="44.92811" lon="6.81548">
        <ele>1557.9</ele>
        <time>2021-12-23T07:47:16Z</time>
      </trkpt>
      <trkpt lat="44.9281" lon="6.81548">
        <ele>1558.1</ele>
        <time>2021-12-23T07:47:17Z</time>
      </trkpt>
      <trkpt lat="44.92809" lon="6.81547">
        <ele>1558.5</ele>
        <time>2021-12-23T07:47:36Z</time>
      </trkpt>
      <trkpt lat="44.928" lon="6.81547">
        <ele>1558.8</ele>
        <time>2021-12-23T07:47:37Z</time>
      </trkpt>
      <trkpt lat="44.92799" lon="6.81547">
        <ele>1558.7</ele>
        <time>2021-12-23T07:47:38Z</time>
      </trkpt>
      <trkpt lat="44.92798" lon="6.81547">
        <ele>1558.7</ele>
        <time>2021-12-23T07:48:21Z</time>
      </trkpt>
      <trkpt lat="44.92789" lon="6.81545">
        <ele>1558.6</ele>
        <time>2021-12-23T07:48:22Z</time>
      </trkpt>
      <trkpt lat="44.92788" lon="6.81545">
        <ele>1558.6</ele>
        <time>2021-12-23T07:48:23Z</time>
      </trkpt>
      <trkpt lat="44.92787" lon="6.81544">
        <ele>1558.8</ele>
        <time>2021-12-23T07:48:36Z</time>
      </trkpt>
      <trkpt lat="44.92777" lon="6.81543">
        <ele>1560.5</ele>
        <time>2021-12-23T07:48:37Z</time>
      </trkpt>
      <trkpt lat="44.92776" lon="6.81542">
        <ele>1560.7</ele>
        <time>2021-12-23T07:48:38Z</time>
      </trkpt>
      <trkpt lat="44.92774" lon="6.81543">
        <ele>1560.9</ele>
        <time>2021-12-23T07:48:49Z</time>
      </trkpt>
      <trkpt lat="44.92765" lon="6.81543">
        <ele>1562.3</ele>
        <time>2021-12-23T07:48:50Z</time>
      </trkpt>
      <trkpt lat="44.92764" lon="6.81543">
        <ele>1562.5</ele>
        <time>2021-12-23T07:48:51Z</time>
      </trkpt>
      <trkpt lat="44.92763" lon="6.81543">
        <ele>1562.8</ele>
        <time>2021-12-23T07:49:05Z</time>
      </trkpt>
      <trkpt lat="44.92753" lon="6.81543">
        <ele>1564.4</ele>
        <time>2021-12-23T07:49:06Z</time>
      </trkpt>
      <trkpt lat="44.92753" lon="6.81543">
        <ele>1564.5</ele>
        <time>2021-12-23T07:49:07Z</time>
      </trkpt>
      <trkpt lat="44.92751" lon="6.81544">
        <ele>1564.8</ele>
        <time>2021-12-23T07:49:17Z</time>
      </trkpt>
      <trkpt lat="44.92742" lon="6.81543">
        <ele>1565.6</ele>
        <time>2021-12-23T07:49:18Z</time>
      </trkpt>
      <trkpt lat="44.92741" lon="6.81543">
        <ele>1565.7</ele>
        <time>2021-12-23T07:49:19Z</time>
      </trkpt>
      <trkpt lat="44.92739" lon="6.81543">
        <ele>1565.7</ele>
        <time>2021-12-23T07:49:34Z</time>
      </trkpt>
      <trkpt lat="44.9273" lon="6.81547">
        <ele>1567.3</ele>
        <time>2021-12-23T07:49:35Z</time>
      </trkpt>
      <trkpt lat="44.9273" lon="6.81547">
        <ele>1567.3</ele>
        <time>2021-12-23T07:49:36Z</time>
      </trkpt>
      <trkpt lat="44.92729" lon="6.81549">
        <ele>1567.5</ele>
        <time>2021-12-23T07:49:48Z</time>
      </trkpt>
      <trkpt lat="44.92721" lon="6.81557">
        <ele>1567.3</ele>
        <time>2021-12-23T07:49:49Z</time>
      </trkpt>
      <trkpt lat="44.9272" lon="6.81557">
        <ele>1567.2</ele>
        <time>2021-12-23T07:49:50Z</time>
      </trkpt>
      <trkpt lat="44.92719" lon="6.81558">
        <ele>1566.9</ele>
        <time>2021-12-23T07:50:05Z</time>
      </trkpt>
      <trkpt lat="44.92712" lon="6.81566">
        <ele>1565.9</ele>
        <time>2021-12-23T07:50:06Z</time>
      </trkpt>
      <trkpt lat="44.92712" lon="6.81566">
        <ele>1566.1</ele>
        <time>2021-12-23T07:50:07Z</time>
      </trkpt>
      <trkpt lat="44.92711" lon="6.81568">
        <ele>1566.5</ele>
        <time>2021-12-23T07:50:21Z</time>
      </trkpt>
      <trkpt lat="44.92702" lon="6.81573">
        <ele>1568.4</ele>
        <time>2021-12-23T07:50:22Z</time>
      </trkpt>
      <trkpt lat="44.92702" lon="6.81574">
        <ele>1568.5</ele>
        <time>2021-12-23T07:50:23Z</time>
      </trkpt>
      <trkpt lat="44.927" lon="6.81574">
        <ele>1568.8</ele>
        <time>2021-12-23T07:50:36Z</time>
      </trkpt>
      <trkpt lat="44.92691" lon="6.81578">
        <ele>1570.9</ele>
        <time>2021-12-23T07:50:37Z</time>
      </trkpt>
      <trkpt lat="44.92691" lon="6.81579">
        <ele>1571.1</ele>
        <time>2021-12-23T07:50:38Z</time>
      </trkpt>
      <trkpt lat="44.92689" lon="6.8158">
        <ele>1571.4</ele>
        <time>2021-12-23T07:50:51Z</time>
      </trkpt>
      <trkpt lat="44.9268" lon="6.81582">
        <ele>1573.3</ele>
        <time>2021-12-23T07:50:52Z</time>
      </trkpt>
      <trkpt lat="44.9268" lon="6.81583">
        <ele>1573.5</ele>
        <time>2021-12-23T07:50:53Z</time>
      </trkpt>
      <trkpt lat="44.92678" lon="6.81584">
        <ele>1573.8</ele>
        <time>2021-12-23T07:51:05Z</time>
      </trkpt>
      <trkpt lat="44.92668" lon="6.81586">
        <ele>1575.7</ele>
        <time>2021-12-23T07:51:06Z</time>
      </trkpt>
      <trkpt lat="44.92668" lon="6.81587">
        <ele>1575.9</ele>
        <time>2021-12-23T07:51:07Z</time>
      </trkpt>
      <trkpt lat="44.92666" lon="6.81587">
        <ele>1576.2</ele>
        <time>2021-12-23T07:51:21Z</time>
      </trkpt>
      <trkpt lat="44.92657" lon="6.81591">
        <ele>1578.1</ele>
        <time>2021-12-23T07:51:22Z</time>
      </trkpt>
      <trkpt lat="44.92657" lon="6.81591">
        <ele>1578.3</ele>
        <time>2021-12-23T07:51:23Z</time>
      </trkpt>
      <trkpt lat="44.92656" lon="6.81591">
        <ele>1578.6</ele>
        <time>2021-12-23T07:51:37Z</time>
      </trkpt>
      <trkpt lat="44.92646" lon="6.81591">
        <ele>1580.6</ele>
        <time>2021-12-23T07:51:38Z</time>
      </trkpt>
      <trkpt lat="44.92645" lon="6.81591">
        <ele>1580.9</ele>
        <time>2021-12-23T07:51:39Z</time>
      </trkpt>
      <trkpt lat="44.92644" lon="6.8159">
        <ele>1581.4</ele>
        <time>2021-12-23T07:51:52Z</time>
      </trkpt>
      <trkpt lat="44.92635" lon="6.81587">
        <ele>1582.3</ele>
        <time>2021-12-23T07:51:53Z</time>
      </trkpt>
      <trkpt lat="44.92634" lon="6.81587">
        <ele>1582.3</ele>
        <time>2021-12-23T07:51:54Z</time>
      </trkpt>
      <trkpt lat="44.92632" lon="6.81586">
        <ele>1582.3</ele>
        <time>2021-12-23T07:52:11Z</time>
      </trkpt>
      <trkpt lat="44.92623" lon="6.81581">
        <ele>1583.1</ele>
        <time>2021-12-23T07:52:12Z</time>
      </trkpt>
      <trkpt lat="44.92622" lon="6.8158">
        <ele>1583.1</ele>
        <time>2021-12-23T07:52:13Z</time>
      </trkpt>
      <trkpt lat="44.92621" lon="6.8158">
        <ele>1583.2</ele>
        <time>2021-12-23T07:52:29Z</time>
      </trkpt>
      <trkpt lat="44.92612" lon="6.81575">
        <ele>1583.8</ele>
        <time>2021-12-23T07:52:30Z</time>
      </trkpt>
      <trkpt lat="44.92611" lon="6.81574">
        <ele>1584</ele>
        <time>2021-12-23T07:52:31Z</time>
      </trkpt>
      <trkpt lat="44.92609" lon="6.81574">
        <ele>1584.1</ele>
        <time>2021-12-23T07:52:51Z</time>
      </trkpt>
      <trkpt lat="44.92601" lon="6.81568">
        <ele>1584.7</ele>
        <time>2021-12-23T07:52:52Z</time>
      </trkpt>
      <trkpt lat="44.926" lon="6.81568">
        <ele>1584.7</ele>
        <time>2021-12-23T07:52:53Z</time>
      </trkpt>
      <trkpt lat="44.92599" lon="6.81568">
        <ele>1584.6</ele>
        <time>2021-12-23T07:53:32Z</time>
      </trkpt>
      <trkpt lat="44.92591" lon="6.81563">
        <ele>1586.2</ele>
        <time>2021-12-23T07:53:33Z</time>
      </trkpt>
      <trkpt lat="44.92591" lon="6.81563">
        <ele>1586.1</ele>
        <time>2021-12-23T07:53:34Z</time>
      </trkpt>
      <trkpt lat="44.92591" lon="6.81563">
        <ele>1586.1</ele>
        <time>2021-12-23T07:55:52Z</time>
      </trkpt>
      <trkpt lat="44.92591" lon="6.81563">
        <ele>1583</ele>
        <time>2021-12-23T07:55:53Z</time>
      </trkpt>
      <trkpt lat="44.92588" lon="6.81567">
        <ele>1583.2</ele>
        <time>2021-12-23T07:55:56Z</time>
      </trkpt>
      <trkpt lat="44.92588" lon="6.81568">
        <ele>1583.4</ele>
        <time>2021-12-23T07:55:57Z</time>
      </trkpt>
      <trkpt lat="44.92588" lon="6.81567">
        <ele>1583.5</ele>
        <time>2021-12-23T08:00:39Z</time>
      </trkpt>
      <trkpt lat="44.92581" lon="6.81558">
        <ele>1587.8</ele>
        <time>2021-12-23T08:00:40Z</time>
      </trkpt>
      <trkpt lat="44.9258" lon="6.81558">
        <ele>1588</ele>
        <time>2021-12-23T08:00:41Z</time>
      </trkpt>
      <trkpt lat="44.92579" lon="6.81557">
        <ele>1588.5</ele>
        <time>2021-12-23T08:00:57Z</time>
      </trkpt>
      <trkpt lat="44.92571" lon="6.8155">
        <ele>1591.6</ele>
        <time>2021-12-23T08:00:58Z</time>
      </trkpt>
      <trkpt lat="44.9257" lon="6.81549">
        <ele>1591.8</ele>
        <time>2021-12-23T08:00:59Z</time>
      </trkpt>
      <trkpt lat="44.9257" lon="6.81548">
        <ele>1592.2</ele>
        <time>2021-12-23T08:01:09Z</time>
      </trkpt>
      <trkpt lat="44.92561" lon="6.81541">
        <ele>1593.2</ele>
        <time>2021-12-23T08:01:10Z</time>
      </trkpt>
      <trkpt lat="44.9256" lon="6.81541">
        <ele>1593.4</ele>
        <time>2021-12-23T08:01:11Z</time>
      </trkpt>
      <trkpt lat="44.92559" lon="6.81539">
        <ele>1593.9</ele>
        <time>2021-12-23T08:01:24Z</time>
      </trkpt>
      <trkpt lat="44.92551" lon="6.81532">
        <ele>1596.1</ele>
        <time>2021-12-23T08:01:25Z</time>
      </trkpt>
      <trkpt lat="44.9255" lon="6.81532">
        <ele>1596.2</ele>
        <time>2021-12-23T08:01:26Z</time>
      </trkpt>
      <trkpt lat="44.92548" lon="6.8153">
        <ele>1596.5</ele>
        <time>2021-12-23T08:01:38Z</time>
      </trkpt>
      <trkpt lat="44.92541" lon="6.81522">
        <ele>1598.3</ele>
        <time>2021-12-23T08:01:39Z</time>
      </trkpt>
      <trkpt lat="44.92539" lon="6.81519">
        <ele>1598</ele>
        <time>2021-12-23T08:01:40Z</time>
      </trkpt>
      <trkpt lat="44.92537" lon="6.81518">
        <ele>1598.2</ele>
        <time>2021-12-23T08:01:42Z</time>
      </trkpt>
      <trkpt lat="44.92536" lon="6.81517">
        <ele>1597.8</ele>
        <time>2021-12-23T08:01:43Z</time>
      </trkpt>
      <trkpt lat="44.92535" lon="6.81515">
        <ele>1597.7</ele>
        <time>2021-12-23T08:01:44Z</time>
      </trkpt>
      <trkpt lat="44.92534" lon="6.81513">
        <ele>1597.9</ele>
        <time>2021-12-23T08:01:46Z</time>
      </trkpt>
      <trkpt lat="44.92533" lon="6.81511">
        <ele>1597.7</ele>
        <time>2021-12-23T08:01:47Z</time>
      </trkpt>
      <trkpt lat="44.92532" lon="6.8151">
        <ele>1597.6</ele>
        <time>2021-12-23T08:01:48Z</time>
      </trkpt>
      <trkpt lat="44.92531" lon="6.81509">
        <ele>1597.4</ele>
        <time>2021-12-23T08:01:49Z</time>
      </trkpt>
      <trkpt lat="44.9253" lon="6.81508">
        <ele>1597.5</ele>
        <time>2021-12-23T08:02:03Z</time>
      </trkpt>
      <trkpt lat="44.92524" lon="6.81498">
        <ele>1598.3</ele>
        <time>2021-12-23T08:02:04Z</time>
      </trkpt>
      <trkpt lat="44.92523" lon="6.81497">
        <ele>1598.3</ele>
        <time>2021-12-23T08:02:05Z</time>
      </trkpt>
      <trkpt lat="44.92522" lon="6.81496">
        <ele>1598.4</ele>
        <time>2021-12-23T08:02:17Z</time>
      </trkpt>
      <trkpt lat="44.92518" lon="6.81485">
        <ele>1598.7</ele>
        <time>2021-12-23T08:02:18Z</time>
      </trkpt>
      <trkpt lat="44.92517" lon="6.81484">
        <ele>1598.8</ele>
        <time>2021-12-23T08:02:19Z</time>
      </trkpt>
      <trkpt lat="44.92517" lon="6.81482">
        <ele>1598.9</ele>
        <time>2021-12-23T08:02:31Z</time>
      </trkpt>
      <trkpt lat="44.92511" lon="6.81471">
        <ele>1599.7</ele>
        <time>2021-12-23T08:02:32Z</time>
      </trkpt>
      <trkpt lat="44.92511" lon="6.81469">
        <ele>1599.7</ele>
        <time>2021-12-23T08:02:33Z</time>
      </trkpt>
      <trkpt lat="44.9251" lon="6.81467">
        <ele>1599.7</ele>
        <time>2021-12-23T08:02:44Z</time>
      </trkpt>
      <trkpt lat="44.92506" lon="6.81456">
        <ele>1600</ele>
        <time>2021-12-23T08:02:45Z</time>
      </trkpt>
      <trkpt lat="44.92506" lon="6.81454">
        <ele>1600</ele>
        <time>2021-12-23T08:02:46Z</time>
      </trkpt>
      <trkpt lat="44.92505" lon="6.81451">
        <ele>1600.1</ele>
        <time>2021-12-23T08:02:57Z</time>
      </trkpt>
      <trkpt lat="44.92501" lon="6.8144">
        <ele>1600.4</ele>
        <time>2021-12-23T08:02:58Z</time>
      </trkpt>
      <trkpt lat="44.925" lon="6.81439">
        <ele>1600.4</ele>
        <time>2021-12-23T08:02:59Z</time>
      </trkpt>
      <trkpt lat="44.925" lon="6.81436">
        <ele>1600.4</ele>
        <time>2021-12-23T08:03:10Z</time>
      </trkpt>
      <trkpt lat="44.92495" lon="6.81425">
        <ele>1600</ele>
        <time>2021-12-23T08:03:11Z</time>
      </trkpt>
      <trkpt lat="44.92494" lon="6.81424">
        <ele>1600.1</ele>
        <time>2021-12-23T08:03:12Z</time>
      </trkpt>
      <trkpt lat="44.92493" lon="6.81422">
        <ele>1600.1</ele>
        <time>2021-12-23T08:03:20Z</time>
      </trkpt>
      <trkpt lat="44.9249" lon="6.81414">
        <ele>1599.7</ele>
        <time>2021-12-23T08:03:21Z</time>
      </trkpt>
      <trkpt lat="44.92488" lon="6.81411">
        <ele>1598.8</ele>
        <time>2021-12-23T08:03:23Z</time>
      </trkpt>
      <trkpt lat="44.92487" lon="6.8141">
        <ele>1598.4</ele>
        <time>2021-12-23T08:03:24Z</time>
      </trkpt>
      <trkpt lat="44.92487" lon="6.81408">
        <ele>1598.4</ele>
        <time>2021-12-23T08:03:38Z</time>
      </trkpt>
      <trkpt lat="44.92481" lon="6.81398">
        <ele>1599.1</ele>
        <time>2021-12-23T08:03:39Z</time>
      </trkpt>
      <trkpt lat="44.9248" lon="6.81397">
        <ele>1599.1</ele>
        <time>2021-12-23T08:03:40Z</time>
      </trkpt>
      <trkpt lat="44.92479" lon="6.81396">
        <ele>1599.3</ele>
        <time>2021-12-23T08:03:56Z</time>
      </trkpt>
      <trkpt lat="44.92473" lon="6.81386">
        <ele>1600.4</ele>
        <time>2021-12-23T08:03:57Z</time>
      </trkpt>
      <trkpt lat="44.92473" lon="6.81386">
        <ele>1600.5</ele>
        <time>2021-12-23T08:03:58Z</time>
      </trkpt>
      <trkpt lat="44.92472" lon="6.81385">
        <ele>1600.4</ele>
        <time>2021-12-23T08:04:14Z</time>
      </trkpt>
      <trkpt lat="44.92464" lon="6.81377">
        <ele>1601.1</ele>
        <time>2021-12-23T08:04:15Z</time>
      </trkpt>
      <trkpt lat="44.92464" lon="6.81376">
        <ele>1601.2</ele>
        <time>2021-12-23T08:04:16Z</time>
      </trkpt>
      <trkpt lat="44.92462" lon="6.81375">
        <ele>1601.2</ele>
        <time>2021-12-23T08:04:30Z</time>
      </trkpt>
      <trkpt lat="44.92455" lon="6.81368">
        <ele>1602.4</ele>
        <time>2021-12-23T08:04:31Z</time>
      </trkpt>
      <trkpt lat="44.92454" lon="6.81368">
        <ele>1602.5</ele>
        <time>2021-12-23T08:04:32Z</time>
      </trkpt>
      <trkpt lat="44.92452" lon="6.81367">
        <ele>1602.7</ele>
        <time>2021-12-23T08:04:47Z</time>
      </trkpt>
      <trkpt lat="44.92443" lon="6.81363">
        <ele>1603.7</ele>
        <time>2021-12-23T08:04:48Z</time>
      </trkpt>
      <trkpt lat="44.92443" lon="6.81362">
        <ele>1603.8</ele>
        <time>2021-12-23T08:04:49Z</time>
      </trkpt>
      <trkpt lat="44.92442" lon="6.81362">
        <ele>1603.9</ele>
        <time>2021-12-23T08:05:02Z</time>
      </trkpt>
      <trkpt lat="44.92433" lon="6.81358">
        <ele>1604.9</ele>
        <time>2021-12-23T08:05:03Z</time>
      </trkpt>
      <trkpt lat="44.92432" lon="6.81357">
        <ele>1604.9</ele>
        <time>2021-12-23T08:05:04Z</time>
      </trkpt>
      <trkpt lat="44.92431" lon="6.81355">
        <ele>1605</ele>
        <time>2021-12-23T08:05:19Z</time>
      </trkpt>
      <trkpt lat="44.92423" lon="6.81348">
        <ele>1605.4</ele>
        <time>2021-12-23T08:05:20Z</time>
      </trkpt>
      <trkpt lat="44.92423" lon="6.81348">
        <ele>1605.5</ele>
        <time>2021-12-23T08:05:21Z</time>
      </trkpt>
      <trkpt lat="44.92422" lon="6.81347">
        <ele>1605.5</ele>
        <time>2021-12-23T08:05:46Z</time>
      </trkpt>
      <trkpt lat="44.92414" lon="6.81341">
        <ele>1608.5</ele>
        <time>2021-12-23T08:05:47Z</time>
      </trkpt>
      <trkpt lat="44.92414" lon="6.8134">
        <ele>1608.4</ele>
        <time>2021-12-23T08:05:48Z</time>
      </trkpt>
      <trkpt lat="44.92413" lon="6.81339">
        <ele>1609.1</ele>
        <time>2021-12-23T08:06:05Z</time>
      </trkpt>
      <trkpt lat="44.92404" lon="6.81334">
        <ele>1612.8</ele>
        <time>2021-12-23T08:06:06Z</time>
      </trkpt>
      <trkpt lat="44.92404" lon="6.81333">
        <ele>1613</ele>
        <time>2021-12-23T08:06:07Z</time>
      </trkpt>
      <trkpt lat="44.92403" lon="6.81332">
        <ele>1613</ele>
        <time>2021-12-23T08:06:28Z</time>
      </trkpt>
      <trkpt lat="44.92396" lon="6.81323">
        <ele>1612.4</ele>
        <time>2021-12-23T08:06:29Z</time>
      </trkpt>
      <trkpt lat="44.92396" lon="6.81323">
        <ele>1612.3</ele>
        <time>2021-12-23T08:06:30Z</time>
      </trkpt>
      <trkpt lat="44.92395" lon="6.81322">
        <ele>1612.2</ele>
        <time>2021-12-23T08:06:50Z</time>
      </trkpt>
      <trkpt lat="44.92388" lon="6.81313">
        <ele>1612.4</ele>
        <time>2021-12-23T08:06:51Z</time>
      </trkpt>
      <trkpt lat="44.92388" lon="6.81312">
        <ele>1612.4</ele>
        <time>2021-12-23T08:06:52Z</time>
      </trkpt>
      <trkpt lat="44.92387" lon="6.81311">
        <ele>1612.5</ele>
        <time>2021-12-23T08:07:12Z</time>
      </trkpt>
      <trkpt lat="44.9238" lon="6.81302">
        <ele>1615.3</ele>
        <time>2021-12-23T08:07:13Z</time>
      </trkpt>
      <trkpt lat="44.9238" lon="6.81302">
        <ele>1615.4</ele>
        <time>2021-12-23T08:07:14Z</time>
      </trkpt>
      <trkpt lat="44.92379" lon="6.813">
        <ele>1615.5</ele>
        <time>2021-12-23T08:07:52Z</time>
      </trkpt>
      <trkpt lat="44.92374" lon="6.81289">
        <ele>1617.1</ele>
        <time>2021-12-23T08:07:53Z</time>
      </trkpt>
      <trkpt lat="44.92374" lon="6.81288">
        <ele>1617.2</ele>
        <time>2021-12-23T08:07:54Z</time>
      </trkpt>
      <trkpt lat="44.92374" lon="6.81287">
        <ele>1617.3</ele>
        <time>2021-12-23T08:08:10Z</time>
      </trkpt>
      <trkpt lat="44.92366" lon="6.8128">
        <ele>1618.6</ele>
        <time>2021-12-23T08:08:11Z</time>
      </trkpt>
      <trkpt lat="44.92366" lon="6.8128">
        <ele>1618.7</ele>
        <time>2021-12-23T08:08:12Z</time>
      </trkpt>
      <trkpt lat="44.92365" lon="6.81279">
        <ele>1618.9</ele>
        <time>2021-12-23T08:08:35Z</time>
      </trkpt>
      <trkpt lat="44.92359" lon="6.81269">
        <ele>1619.6</ele>
        <time>2021-12-23T08:08:36Z</time>
      </trkpt>
      <trkpt lat="44.92359" lon="6.81269">
        <ele>1619.6</ele>
        <time>2021-12-23T08:08:37Z</time>
      </trkpt>
      <trkpt lat="44.92359" lon="6.81269">
        <ele>1619.7</ele>
        <time>2021-12-23T08:11:06Z</time>
      </trkpt>
      <trkpt lat="44.92352" lon="6.81259">
        <ele>1621.4</ele>
        <time>2021-12-23T08:11:07Z</time>
      </trkpt>
      <trkpt lat="44.92352" lon="6.81258">
        <ele>1621.4</ele>
        <time>2021-12-23T08:11:08Z</time>
      </trkpt>
      <trkpt lat="44.92351" lon="6.81257">
        <ele>1621.3</ele>
        <time>2021-12-23T08:11:22Z</time>
      </trkpt>
      <trkpt lat="44.92345" lon="6.81246">
        <ele>1621.8</ele>
        <time>2021-12-23T08:11:23Z</time>
      </trkpt>
      <trkpt lat="44.92345" lon="6.81245">
        <ele>1621.9</ele>
        <time>2021-12-23T08:11:24Z</time>
      </trkpt>
      <trkpt lat="44.92344" lon="6.81244">
        <ele>1622.1</ele>
        <time>2021-12-23T08:11:40Z</time>
      </trkpt>
      <trkpt lat="44.92336" lon="6.81237">
        <ele>1623.2</ele>
        <time>2021-12-23T08:11:41Z</time>
      </trkpt>
      <trkpt lat="44.92335" lon="6.81236">
        <ele>1623.3</ele>
        <time>2021-12-23T08:11:42Z</time>
      </trkpt>
      <trkpt lat="44.92334" lon="6.81235">
        <ele>1623.5</ele>
        <time>2021-12-23T08:11:56Z</time>
      </trkpt>
      <trkpt lat="44.92327" lon="6.81227">
        <ele>1625.5</ele>
        <time>2021-12-23T08:11:57Z</time>
      </trkpt>
      <trkpt lat="44.92327" lon="6.81226">
        <ele>1625.7</ele>
        <time>2021-12-23T08:11:58Z</time>
      </trkpt>
      <trkpt lat="44.92326" lon="6.81226">
        <ele>1626.2</ele>
        <time>2021-12-23T08:12:16Z</time>
      </trkpt>
      <trkpt lat="44.9232" lon="6.81216">
        <ele>1629.1</ele>
        <time>2021-12-23T08:12:17Z</time>
      </trkpt>
      <trkpt lat="44.9232" lon="6.81215">
        <ele>1629.1</ele>
        <time>2021-12-23T08:12:18Z</time>
      </trkpt>
      <trkpt lat="44.92319" lon="6.81214">
        <ele>1629.4</ele>
        <time>2021-12-23T08:12:40Z</time>
      </trkpt>
      <trkpt lat="44.92312" lon="6.81206">
        <ele>1632.2</ele>
        <time>2021-12-23T08:12:41Z</time>
      </trkpt>
      <trkpt lat="44.92312" lon="6.81205">
        <ele>1632.2</ele>
        <time>2021-12-23T08:12:42Z</time>
      </trkpt>
      <trkpt lat="44.9231" lon="6.81204">
        <ele>1632.4</ele>
        <time>2021-12-23T08:12:58Z</time>
      </trkpt>
      <trkpt lat="44.92303" lon="6.81197">
        <ele>1633.3</ele>
        <time>2021-12-23T08:12:59Z</time>
      </trkpt>
      <trkpt lat="44.92302" lon="6.81196">
        <ele>1633.4</ele>
        <time>2021-12-23T08:13:00Z</time>
      </trkpt>
      <trkpt lat="44.92302" lon="6.81195">
        <ele>1633.4</ele>
        <time>2021-12-23T08:13:14Z</time>
      </trkpt>
      <trkpt lat="44.92295" lon="6.81186">
        <ele>1632.5</ele>
        <time>2021-12-23T08:13:15Z</time>
      </trkpt>
      <trkpt lat="44.92294" lon="6.81184">
        <ele>1633</ele>
        <time>2021-12-23T08:13:16Z</time>
      </trkpt>
      <trkpt lat="44.92292" lon="6.81183">
        <ele>1633.6</ele>
        <time>2021-12-23T08:13:17Z</time>
      </trkpt>
      <trkpt lat="44.92291" lon="6.81182">
        <ele>1633.7</ele>
        <time>2021-12-23T08:13:30Z</time>
      </trkpt>
      <trkpt lat="44.92283" lon="6.81175">
        <ele>1635.4</ele>
        <time>2021-12-23T08:13:31Z</time>
      </trkpt>
      <trkpt lat="44.92282" lon="6.81174">
        <ele>1635.5</ele>
        <time>2021-12-23T08:13:32Z</time>
      </trkpt>
      <trkpt lat="44.92281" lon="6.81173">
        <ele>1635.8</ele>
        <time>2021-12-23T08:13:49Z</time>
      </trkpt>
      <trkpt lat="44.92273" lon="6.81168">
        <ele>1637.8</ele>
        <time>2021-12-23T08:13:50Z</time>
      </trkpt>
      <trkpt lat="44.92272" lon="6.81168">
        <ele>1637.9</ele>
        <time>2021-12-23T08:13:51Z</time>
      </trkpt>
      <trkpt lat="44.92271" lon="6.81167">
        <ele>1638.1</ele>
        <time>2021-12-23T08:14:05Z</time>
      </trkpt>
      <trkpt lat="44.92265" lon="6.81158">
        <ele>1639.1</ele>
        <time>2021-12-23T08:14:06Z</time>
      </trkpt>
      <trkpt lat="44.92264" lon="6.81157">
        <ele>1639.1</ele>
        <time>2021-12-23T08:14:07Z</time>
      </trkpt>
      <trkpt lat="44.92263" lon="6.81155">
        <ele>1639.4</ele>
        <time>2021-12-23T08:14:23Z</time>
      </trkpt>
      <trkpt lat="44.92258" lon="6.81145">
        <ele>1640.8</ele>
        <time>2021-12-23T08:14:24Z</time>
      </trkpt>
      <trkpt lat="44.92258" lon="6.81144">
        <ele>1640.9</ele>
        <time>2021-12-23T08:14:25Z</time>
      </trkpt>
      <trkpt lat="44.92258" lon="6.81143">
        <ele>1641.1</ele>
        <time>2021-12-23T08:14:43Z</time>
      </trkpt>
      <trkpt lat="44.92253" lon="6.81131">
        <ele>1643.7</ele>
        <time>2021-12-23T08:14:44Z</time>
      </trkpt>
      <trkpt lat="44.92253" lon="6.8113">
        <ele>1643.9</ele>
        <time>2021-12-23T08:14:45Z</time>
      </trkpt>
    </trkseg>
  </trk>
</gpx>